<?xml version="1.0" encoding="UTF-8" standalone="no" ?>
<gpx xmlns="http://www.topografix.com/GPX/1/1" xmlns:xsi="http://www.w3.org/2001/XMLSchema-instance" xsi:schemaLocation="http://www.topografix.com/GPX/1/1 http://www.topografix.com/GPX/1/1/gpx.xsd" version="1.1" creator="VisuGPX - https://www.visugpx.com">
  <metadata>
    <name>Noeux les Auxi: 21 SEPT 2022 13:58</name>
  </metadata>
  <trk>
    <name><![CDATA[Noeux les Auxi: 21 SEPT 2022 13:58]]></name>
    <trkseg>
      <trkpt lat="50.23514" lon="2.1749">
        <ele>53.01</ele>
        <time>2022-09-21T11:58:07Z</time>
      </trkpt>
      <trkpt lat="50.23504" lon="2.1749">
        <ele>65.51</ele>
        <time>2022-09-21T11:58:30Z</time>
      </trkpt>
      <trkpt lat="50.23509" lon="2.17492">
        <ele>62.14</ele>
        <time>2022-09-21T11:58:55Z</time>
      </trkpt>
      <trkpt lat="50.23509" lon="2.17496">
        <ele>56.86</ele>
        <time>2022-09-21T11:59:23Z</time>
      </trkpt>
      <trkpt lat="50.23509" lon="2.17495">
        <ele>52.05</ele>
        <time>2022-09-21T11:59:46Z</time>
      </trkpt>
      <trkpt lat="50.23509" lon="2.17494">
        <ele>52.53</ele>
        <time>2022-09-21T12:00:11Z</time>
      </trkpt>
      <trkpt lat="50.23509" lon="2.17493">
        <ele>53.01</ele>
        <time>2022-09-21T12:00:34Z</time>
      </trkpt>
      <trkpt lat="50.23509" lon="2.17491">
        <ele>52.05</ele>
        <time>2022-09-21T12:00:59Z</time>
      </trkpt>
      <trkpt lat="50.23509" lon="2.1749">
        <ele>51.57</ele>
        <time>2022-09-21T12:01:16Z</time>
      </trkpt>
      <trkpt lat="50.23508" lon="2.17488">
        <ele>50.13</ele>
        <time>2022-09-21T12:01:35Z</time>
      </trkpt>
      <trkpt lat="50.23501" lon="2.17489">
        <ele>49.16</ele>
        <time>2022-09-21T12:01:47Z</time>
      </trkpt>
      <trkpt lat="50.23494" lon="2.17493">
        <ele>47.72</ele>
        <time>2022-09-21T12:01:55Z</time>
      </trkpt>
      <trkpt lat="50.23484" lon="2.17495">
        <ele>47.72</ele>
        <time>2022-09-21T12:02:03Z</time>
      </trkpt>
      <trkpt lat="50.2347" lon="2.17497">
        <ele>49.16</ele>
        <time>2022-09-21T12:02:13Z</time>
      </trkpt>
      <trkpt lat="50.23463" lon="2.17498">
        <ele>49.16</ele>
        <time>2022-09-21T12:02:19Z</time>
      </trkpt>
      <trkpt lat="50.2344" lon="2.17498">
        <ele>49.65</ele>
        <time>2022-09-21T12:02:37Z</time>
      </trkpt>
      <trkpt lat="50.23424" lon="2.17508">
        <ele>49.65</ele>
        <time>2022-09-21T12:02:51Z</time>
      </trkpt>
      <trkpt lat="50.23422" lon="2.17534">
        <ele>49.16</ele>
        <time>2022-09-21T12:03:05Z</time>
      </trkpt>
      <trkpt lat="50.23423" lon="2.17557">
        <ele>48.68</ele>
        <time>2022-09-21T12:03:17Z</time>
      </trkpt>
      <trkpt lat="50.23423" lon="2.17564">
        <ele>48.68</ele>
        <time>2022-09-21T12:03:21Z</time>
      </trkpt>
      <trkpt lat="50.23422" lon="2.17573">
        <ele>48.2</ele>
        <time>2022-09-21T12:03:26Z</time>
      </trkpt>
      <trkpt lat="50.23421" lon="2.17598">
        <ele>46.28</ele>
        <time>2022-09-21T12:03:41Z</time>
      </trkpt>
      <trkpt lat="50.23419" lon="2.17621">
        <ele>43.4</ele>
        <time>2022-09-21T12:03:53Z</time>
      </trkpt>
      <trkpt lat="50.23422" lon="2.17645">
        <ele>41.95</ele>
        <time>2022-09-21T12:04:05Z</time>
      </trkpt>
      <trkpt lat="50.23428" lon="2.17673">
        <ele>42.92</ele>
        <time>2022-09-21T12:04:19Z</time>
      </trkpt>
      <trkpt lat="50.23431" lon="2.17694">
        <ele>45.8</ele>
        <time>2022-09-21T12:04:30Z</time>
      </trkpt>
      <trkpt lat="50.23427" lon="2.17717">
        <ele>49.65</ele>
        <time>2022-09-21T12:04:44Z</time>
      </trkpt>
      <trkpt lat="50.23432" lon="2.17745">
        <ele>51.09</ele>
        <time>2022-09-21T12:04:58Z</time>
      </trkpt>
      <trkpt lat="50.23445" lon="2.17762">
        <ele>51.57</ele>
        <time>2022-09-21T12:05:11Z</time>
      </trkpt>
      <trkpt lat="50.23458" lon="2.17773">
        <ele>52.05</ele>
        <time>2022-09-21T12:05:22Z</time>
      </trkpt>
      <trkpt lat="50.23471" lon="2.17787">
        <ele>49.16</ele>
        <time>2022-09-21T12:05:35Z</time>
      </trkpt>
      <trkpt lat="50.23482" lon="2.17806">
        <ele>47.72</ele>
        <time>2022-09-21T12:05:47Z</time>
      </trkpt>
      <trkpt lat="50.23489" lon="2.1783">
        <ele>49.65</ele>
        <time>2022-09-21T12:05:59Z</time>
      </trkpt>
      <trkpt lat="50.23498" lon="2.17853">
        <ele>49.16</ele>
        <time>2022-09-21T12:06:13Z</time>
      </trkpt>
      <trkpt lat="50.23507" lon="2.17874">
        <ele>48.68</ele>
        <time>2022-09-21T12:06:26Z</time>
      </trkpt>
      <trkpt lat="50.23518" lon="2.17899">
        <ele>49.65</ele>
        <time>2022-09-21T12:06:41Z</time>
      </trkpt>
      <trkpt lat="50.2352" lon="2.1791">
        <ele>50.13</ele>
        <time>2022-09-21T12:06:47Z</time>
      </trkpt>
      <trkpt lat="50.23527" lon="2.17927">
        <ele>50.13</ele>
        <time>2022-09-21T12:06:57Z</time>
      </trkpt>
      <trkpt lat="50.23536" lon="2.1795">
        <ele>50.61</ele>
        <time>2022-09-21T12:07:10Z</time>
      </trkpt>
      <trkpt lat="50.23549" lon="2.17975">
        <ele>53.97</ele>
        <time>2022-09-21T12:07:24Z</time>
      </trkpt>
      <trkpt lat="50.2356" lon="2.17994">
        <ele>56.86</ele>
        <time>2022-09-21T12:07:35Z</time>
      </trkpt>
      <trkpt lat="50.2357" lon="2.18023">
        <ele>55.41</ele>
        <time>2022-09-21T12:07:51Z</time>
      </trkpt>
      <trkpt lat="50.2357" lon="2.18027">
        <ele>55.41</ele>
        <time>2022-09-21T12:07:53Z</time>
      </trkpt>
      <trkpt lat="50.2358" lon="2.18049">
        <ele>54.45</ele>
        <time>2022-09-21T12:08:07Z</time>
      </trkpt>
      <trkpt lat="50.23592" lon="2.18071">
        <ele>56.86</ele>
        <time>2022-09-21T12:08:20Z</time>
      </trkpt>
      <trkpt lat="50.23595" lon="2.18088">
        <ele>54.93</ele>
        <time>2022-09-21T12:08:31Z</time>
      </trkpt>
      <trkpt lat="50.23598" lon="2.18104">
        <ele>51.09</ele>
        <time>2022-09-21T12:08:41Z</time>
      </trkpt>
      <trkpt lat="50.23598" lon="2.18106">
        <ele>51.09</ele>
        <time>2022-09-21T12:08:42Z</time>
      </trkpt>
      <trkpt lat="50.23602" lon="2.1813">
        <ele>48.68</ele>
        <time>2022-09-21T12:08:56Z</time>
      </trkpt>
      <trkpt lat="50.23609" lon="2.1815">
        <ele>47.24</ele>
        <time>2022-09-21T12:09:07Z</time>
      </trkpt>
      <trkpt lat="50.23612" lon="2.18179">
        <ele>47.24</ele>
        <time>2022-09-21T12:09:21Z</time>
      </trkpt>
      <trkpt lat="50.23615" lon="2.18201">
        <ele>46.28</ele>
        <time>2022-09-21T12:09:34Z</time>
      </trkpt>
      <trkpt lat="50.2362" lon="2.18227">
        <ele>46.28</ele>
        <time>2022-09-21T12:09:47Z</time>
      </trkpt>
      <trkpt lat="50.23626" lon="2.18248">
        <ele>49.16</ele>
        <time>2022-09-21T12:09:59Z</time>
      </trkpt>
      <trkpt lat="50.23633" lon="2.18273">
        <ele>52.05</ele>
        <time>2022-09-21T12:10:12Z</time>
      </trkpt>
      <trkpt lat="50.23634" lon="2.18301">
        <ele>52.05</ele>
        <time>2022-09-21T12:10:24Z</time>
      </trkpt>
      <trkpt lat="50.23641" lon="2.1833">
        <ele>54.45</ele>
        <time>2022-09-21T12:10:38Z</time>
      </trkpt>
      <trkpt lat="50.23644" lon="2.1835">
        <ele>53.01</ele>
        <time>2022-09-21T12:10:50Z</time>
      </trkpt>
      <trkpt lat="50.23647" lon="2.18374">
        <ele>53.01</ele>
        <time>2022-09-21T12:11:02Z</time>
      </trkpt>
      <trkpt lat="50.23651" lon="2.18396">
        <ele>53.97</ele>
        <time>2022-09-21T12:11:14Z</time>
      </trkpt>
      <trkpt lat="50.23656" lon="2.18416">
        <ele>53.01</ele>
        <time>2022-09-21T12:11:26Z</time>
      </trkpt>
      <trkpt lat="50.23663" lon="2.18437">
        <ele>51.57</ele>
        <time>2022-09-21T12:11:38Z</time>
      </trkpt>
      <trkpt lat="50.23669" lon="2.18457">
        <ele>52.05</ele>
        <time>2022-09-21T12:11:48Z</time>
      </trkpt>
      <trkpt lat="50.23675" lon="2.18485">
        <ele>54.45</ele>
        <time>2022-09-21T12:12:01Z</time>
      </trkpt>
      <trkpt lat="50.23679" lon="2.185">
        <ele>52.53</ele>
        <time>2022-09-21T12:12:12Z</time>
      </trkpt>
      <trkpt lat="50.2369" lon="2.18522">
        <ele>52.53</ele>
        <time>2022-09-21T12:12:24Z</time>
      </trkpt>
      <trkpt lat="50.23698" lon="2.18537">
        <ele>56.86</ele>
        <time>2022-09-21T12:12:31Z</time>
      </trkpt>
      <trkpt lat="50.2371" lon="2.1856">
        <ele>60.22</ele>
        <time>2022-09-21T12:12:45Z</time>
      </trkpt>
      <trkpt lat="50.23722" lon="2.18579">
        <ele>63.1</ele>
        <time>2022-09-21T12:12:57Z</time>
      </trkpt>
      <trkpt lat="50.2373" lon="2.186">
        <ele>63.58</ele>
        <time>2022-09-21T12:13:10Z</time>
      </trkpt>
      <trkpt lat="50.23734" lon="2.18607">
        <ele>63.1</ele>
        <time>2022-09-21T12:13:16Z</time>
      </trkpt>
      <trkpt lat="50.23742" lon="2.18623">
        <ele>60.7</ele>
        <time>2022-09-21T12:13:29Z</time>
      </trkpt>
      <trkpt lat="50.23748" lon="2.18636">
        <ele>59.26</ele>
        <time>2022-09-21T12:13:39Z</time>
      </trkpt>
      <trkpt lat="50.23752" lon="2.18644">
        <ele>57.34</ele>
        <time>2022-09-21T12:13:47Z</time>
      </trkpt>
      <trkpt lat="50.23759" lon="2.18662">
        <ele>53.97</ele>
        <time>2022-09-21T12:14:00Z</time>
      </trkpt>
      <trkpt lat="50.2377" lon="2.1868">
        <ele>50.61</ele>
        <time>2022-09-21T12:14:12Z</time>
      </trkpt>
      <trkpt lat="50.23771" lon="2.18681">
        <ele>50.13</ele>
        <time>2022-09-21T12:14:13Z</time>
      </trkpt>
      <trkpt lat="50.23783" lon="2.18699">
        <ele>47.24</ele>
        <time>2022-09-21T12:14:26Z</time>
      </trkpt>
      <trkpt lat="50.23791" lon="2.18708">
        <ele>45.8</ele>
        <time>2022-09-21T12:14:34Z</time>
      </trkpt>
      <trkpt lat="50.23804" lon="2.1873">
        <ele>44.36</ele>
        <time>2022-09-21T12:14:47Z</time>
      </trkpt>
      <trkpt lat="50.23815" lon="2.18748">
        <ele>45.32</ele>
        <time>2022-09-21T12:14:59Z</time>
      </trkpt>
      <trkpt lat="50.23828" lon="2.18766">
        <ele>44.36</ele>
        <time>2022-09-21T12:15:14Z</time>
      </trkpt>
      <trkpt lat="50.23839" lon="2.1878">
        <ele>44.84</ele>
        <time>2022-09-21T12:15:25Z</time>
      </trkpt>
      <trkpt lat="50.2385" lon="2.18796">
        <ele>46.76</ele>
        <time>2022-09-21T12:15:37Z</time>
      </trkpt>
      <trkpt lat="50.23865" lon="2.18818">
        <ele>49.65</ele>
        <time>2022-09-21T12:15:51Z</time>
      </trkpt>
      <trkpt lat="50.23879" lon="2.18837">
        <ele>52.05</ele>
        <time>2022-09-21T12:16:04Z</time>
      </trkpt>
      <trkpt lat="50.23893" lon="2.18855">
        <ele>52.05</ele>
        <time>2022-09-21T12:16:18Z</time>
      </trkpt>
      <trkpt lat="50.23894" lon="2.1886">
        <ele>51.09</ele>
        <time>2022-09-21T12:16:22Z</time>
      </trkpt>
      <trkpt lat="50.23908" lon="2.18877">
        <ele>51.57</ele>
        <time>2022-09-21T12:16:35Z</time>
      </trkpt>
      <trkpt lat="50.23917" lon="2.18892">
        <ele>52.05</ele>
        <time>2022-09-21T12:16:46Z</time>
      </trkpt>
      <trkpt lat="50.23925" lon="2.18907">
        <ele>52.05</ele>
        <time>2022-09-21T12:16:56Z</time>
      </trkpt>
      <trkpt lat="50.23934" lon="2.18921">
        <ele>51.57</ele>
        <time>2022-09-21T12:17:06Z</time>
      </trkpt>
      <trkpt lat="50.23943" lon="2.18942">
        <ele>53.01</ele>
        <time>2022-09-21T12:17:18Z</time>
      </trkpt>
      <trkpt lat="50.23954" lon="2.18961">
        <ele>55.41</ele>
        <time>2022-09-21T12:17:31Z</time>
      </trkpt>
      <trkpt lat="50.23963" lon="2.1898">
        <ele>54.93</ele>
        <time>2022-09-21T12:17:42Z</time>
      </trkpt>
      <trkpt lat="50.2397" lon="2.18995">
        <ele>54.45</ele>
        <time>2022-09-21T12:17:51Z</time>
      </trkpt>
      <trkpt lat="50.23979" lon="2.19017">
        <ele>53.49</ele>
        <time>2022-09-21T12:18:04Z</time>
      </trkpt>
      <trkpt lat="50.23987" lon="2.19046">
        <ele>53.49</ele>
        <time>2022-09-21T12:18:20Z</time>
      </trkpt>
      <trkpt lat="50.23989" lon="2.19052">
        <ele>53.01</ele>
        <time>2022-09-21T12:18:24Z</time>
      </trkpt>
      <trkpt lat="50.23998" lon="2.19079">
        <ele>53.97</ele>
        <time>2022-09-21T12:18:40Z</time>
      </trkpt>
      <trkpt lat="50.24004" lon="2.19099">
        <ele>54.93</ele>
        <time>2022-09-21T12:18:52Z</time>
      </trkpt>
      <trkpt lat="50.24011" lon="2.19123">
        <ele>57.34</ele>
        <time>2022-09-21T12:19:06Z</time>
      </trkpt>
      <trkpt lat="50.24018" lon="2.19141">
        <ele>57.82</ele>
        <time>2022-09-21T12:19:17Z</time>
      </trkpt>
      <trkpt lat="50.24019" lon="2.19143">
        <ele>57.82</ele>
        <time>2022-09-21T12:19:18Z</time>
      </trkpt>
      <trkpt lat="50.24026" lon="2.19167">
        <ele>58.3</ele>
        <time>2022-09-21T12:19:31Z</time>
      </trkpt>
      <trkpt lat="50.24033" lon="2.19193">
        <ele>60.7</ele>
        <time>2022-09-21T12:19:44Z</time>
      </trkpt>
      <trkpt lat="50.24037" lon="2.1921">
        <ele>62.62</ele>
        <time>2022-09-21T12:19:51Z</time>
      </trkpt>
      <trkpt lat="50.24044" lon="2.19238">
        <ele>65.51</ele>
        <time>2022-09-21T12:20:06Z</time>
      </trkpt>
      <trkpt lat="50.2405" lon="2.19263">
        <ele>66.95</ele>
        <time>2022-09-21T12:20:19Z</time>
      </trkpt>
      <trkpt lat="50.24054" lon="2.19282">
        <ele>66.95</ele>
        <time>2022-09-21T12:20:29Z</time>
      </trkpt>
      <trkpt lat="50.2406" lon="2.19307">
        <ele>66.47</ele>
        <time>2022-09-21T12:20:43Z</time>
      </trkpt>
      <trkpt lat="50.24068" lon="2.19332">
        <ele>65.03</ele>
        <time>2022-09-21T12:20:58Z</time>
      </trkpt>
      <trkpt lat="50.24073" lon="2.19356">
        <ele>66.47</ele>
        <time>2022-09-21T12:21:11Z</time>
      </trkpt>
      <trkpt lat="50.24079" lon="2.1938">
        <ele>66.95</ele>
        <time>2022-09-21T12:21:24Z</time>
      </trkpt>
      <trkpt lat="50.24086" lon="2.19408">
        <ele>67.91</ele>
        <time>2022-09-21T12:21:39Z</time>
      </trkpt>
      <trkpt lat="50.24091" lon="2.19428">
        <ele>65.51</ele>
        <time>2022-09-21T12:21:51Z</time>
      </trkpt>
      <trkpt lat="50.24096" lon="2.19448">
        <ele>65.99</ele>
        <time>2022-09-21T12:22:01Z</time>
      </trkpt>
      <trkpt lat="50.241" lon="2.19471">
        <ele>65.99</ele>
        <time>2022-09-21T12:22:13Z</time>
      </trkpt>
      <trkpt lat="50.24106" lon="2.19488">
        <ele>65.51</ele>
        <time>2022-09-21T12:22:25Z</time>
      </trkpt>
      <trkpt lat="50.24111" lon="2.1951">
        <ele>66.95</ele>
        <time>2022-09-21T12:22:36Z</time>
      </trkpt>
      <trkpt lat="50.24114" lon="2.1953">
        <ele>65.99</ele>
        <time>2022-09-21T12:22:48Z</time>
      </trkpt>
      <trkpt lat="50.24115" lon="2.19532">
        <ele>65.99</ele>
        <time>2022-09-21T12:22:49Z</time>
      </trkpt>
      <trkpt lat="50.24116" lon="2.19535">
        <ele>65.99</ele>
        <time>2022-09-21T12:22:51Z</time>
      </trkpt>
      <trkpt lat="50.24124" lon="2.1955">
        <ele>65.51</ele>
        <time>2022-09-21T12:23:02Z</time>
      </trkpt>
      <trkpt lat="50.24126" lon="2.19555">
        <ele>65.99</ele>
        <time>2022-09-21T12:23:05Z</time>
      </trkpt>
      <trkpt lat="50.24132" lon="2.19578">
        <ele>65.99</ele>
        <time>2022-09-21T12:23:18Z</time>
      </trkpt>
      <trkpt lat="50.24139" lon="2.19595">
        <ele>67.43</ele>
        <time>2022-09-21T12:23:29Z</time>
      </trkpt>
      <trkpt lat="50.24145" lon="2.19612">
        <ele>70.79</ele>
        <time>2022-09-21T12:23:38Z</time>
      </trkpt>
      <trkpt lat="50.24153" lon="2.19638">
        <ele>71.27</ele>
        <time>2022-09-21T12:23:52Z</time>
      </trkpt>
      <trkpt lat="50.24159" lon="2.19654">
        <ele>71.76</ele>
        <time>2022-09-21T12:24:02Z</time>
      </trkpt>
      <trkpt lat="50.24169" lon="2.19675">
        <ele>73.68</ele>
        <time>2022-09-21T12:24:14Z</time>
      </trkpt>
      <trkpt lat="50.24173" lon="2.19686">
        <ele>74.64</ele>
        <time>2022-09-21T12:24:20Z</time>
      </trkpt>
      <trkpt lat="50.24176" lon="2.19695">
        <ele>74.16</ele>
        <time>2022-09-21T12:24:25Z</time>
      </trkpt>
      <trkpt lat="50.24183" lon="2.19715">
        <ele>71.76</ele>
        <time>2022-09-21T12:24:38Z</time>
      </trkpt>
      <trkpt lat="50.24188" lon="2.19736">
        <ele>68.39</ele>
        <time>2022-09-21T12:24:50Z</time>
      </trkpt>
      <trkpt lat="50.24188" lon="2.19741">
        <ele>66.95</ele>
        <time>2022-09-21T12:24:53Z</time>
      </trkpt>
      <trkpt lat="50.24188" lon="2.19751">
        <ele>65.03</ele>
        <time>2022-09-21T12:24:58Z</time>
      </trkpt>
      <trkpt lat="50.24193" lon="2.19774">
        <ele>57.82</ele>
        <time>2022-09-21T12:25:13Z</time>
      </trkpt>
      <trkpt lat="50.24196" lon="2.19784">
        <ele>56.37</ele>
        <time>2022-09-21T12:25:19Z</time>
      </trkpt>
      <trkpt lat="50.24205" lon="2.19805">
        <ele>55.89</ele>
        <time>2022-09-21T12:25:32Z</time>
      </trkpt>
      <trkpt lat="50.24213" lon="2.19822">
        <ele>55.89</ele>
        <time>2022-09-21T12:25:44Z</time>
      </trkpt>
      <trkpt lat="50.24219" lon="2.19835">
        <ele>54.93</ele>
        <time>2022-09-21T12:25:53Z</time>
      </trkpt>
      <trkpt lat="50.24232" lon="2.19857">
        <ele>56.37</ele>
        <time>2022-09-21T12:26:06Z</time>
      </trkpt>
      <trkpt lat="50.2424" lon="2.19871">
        <ele>54.93</ele>
        <time>2022-09-21T12:26:17Z</time>
      </trkpt>
      <trkpt lat="50.24254" lon="2.19885">
        <ele>59.74</ele>
        <time>2022-09-21T12:26:29Z</time>
      </trkpt>
      <trkpt lat="50.24267" lon="2.19906">
        <ele>63.58</ele>
        <time>2022-09-21T12:26:43Z</time>
      </trkpt>
      <trkpt lat="50.24275" lon="2.1992">
        <ele>64.07</ele>
        <time>2022-09-21T12:26:53Z</time>
      </trkpt>
      <trkpt lat="50.24283" lon="2.19934">
        <ele>63.58</ele>
        <time>2022-09-21T12:27:04Z</time>
      </trkpt>
      <trkpt lat="50.2429" lon="2.19947">
        <ele>63.58</ele>
        <time>2022-09-21T12:27:14Z</time>
      </trkpt>
      <trkpt lat="50.24301" lon="2.19959">
        <ele>62.62</ele>
        <time>2022-09-21T12:27:24Z</time>
      </trkpt>
      <trkpt lat="50.24312" lon="2.19973">
        <ele>61.66</ele>
        <time>2022-09-21T12:27:36Z</time>
      </trkpt>
      <trkpt lat="50.24315" lon="2.1998">
        <ele>62.62</ele>
        <time>2022-09-21T12:27:41Z</time>
      </trkpt>
      <trkpt lat="50.24325" lon="2.19988">
        <ele>66.47</ele>
        <time>2022-09-21T12:27:48Z</time>
      </trkpt>
      <trkpt lat="50.2434" lon="2.20005">
        <ele>68.39</ele>
        <time>2022-09-21T12:28:03Z</time>
      </trkpt>
      <trkpt lat="50.24352" lon="2.20015">
        <ele>69.83</ele>
        <time>2022-09-21T12:28:14Z</time>
      </trkpt>
      <trkpt lat="50.24364" lon="2.20025">
        <ele>68.39</ele>
        <time>2022-09-21T12:28:26Z</time>
      </trkpt>
      <trkpt lat="50.24367" lon="2.20028">
        <ele>68.39</ele>
        <time>2022-09-21T12:28:30Z</time>
      </trkpt>
      <trkpt lat="50.24369" lon="2.20033">
        <ele>67.91</ele>
        <time>2022-09-21T12:28:33Z</time>
      </trkpt>
      <trkpt lat="50.24383" lon="2.20048">
        <ele>67.91</ele>
        <time>2022-09-21T12:28:46Z</time>
      </trkpt>
      <trkpt lat="50.24392" lon="2.20059">
        <ele>66.95</ele>
        <time>2022-09-21T12:28:57Z</time>
      </trkpt>
      <trkpt lat="50.24402" lon="2.20069">
        <ele>65.99</ele>
        <time>2022-09-21T12:29:07Z</time>
      </trkpt>
      <trkpt lat="50.24413" lon="2.20081">
        <ele>66.95</ele>
        <time>2022-09-21T12:29:18Z</time>
      </trkpt>
      <trkpt lat="50.24425" lon="2.20093">
        <ele>67.91</ele>
        <time>2022-09-21T12:29:30Z</time>
      </trkpt>
      <trkpt lat="50.24436" lon="2.20106">
        <ele>70.31</ele>
        <time>2022-09-21T12:29:41Z</time>
      </trkpt>
      <trkpt lat="50.24446" lon="2.20117">
        <ele>70.31</ele>
        <time>2022-09-21T12:29:52Z</time>
      </trkpt>
      <trkpt lat="50.24456" lon="2.20125">
        <ele>75.12</ele>
        <time>2022-09-21T12:30:05Z</time>
      </trkpt>
      <trkpt lat="50.24459" lon="2.20126">
        <ele>78</ele>
        <time>2022-09-21T12:30:21Z</time>
      </trkpt>
      <trkpt lat="50.24462" lon="2.20133">
        <ele>78</ele>
        <time>2022-09-21T12:30:31Z</time>
      </trkpt>
      <trkpt lat="50.24472" lon="2.20147">
        <ele>75.12</ele>
        <time>2022-09-21T12:30:44Z</time>
      </trkpt>
      <trkpt lat="50.24478" lon="2.20154">
        <ele>73.68</ele>
        <time>2022-09-21T12:30:51Z</time>
      </trkpt>
      <trkpt lat="50.24488" lon="2.20162">
        <ele>72.24</ele>
        <time>2022-09-21T12:30:59Z</time>
      </trkpt>
      <trkpt lat="50.24501" lon="2.20176">
        <ele>70.31</ele>
        <time>2022-09-21T12:31:12Z</time>
      </trkpt>
      <trkpt lat="50.24508" lon="2.20184">
        <ele>71.27</ele>
        <time>2022-09-21T12:31:18Z</time>
      </trkpt>
      <trkpt lat="50.24511" lon="2.20188">
        <ele>72.72</ele>
        <time>2022-09-21T12:31:21Z</time>
      </trkpt>
      <trkpt lat="50.24522" lon="2.20204">
        <ele>73.68</ele>
        <time>2022-09-21T12:31:34Z</time>
      </trkpt>
      <trkpt lat="50.24534" lon="2.20221">
        <ele>71.27</ele>
        <time>2022-09-21T12:31:46Z</time>
      </trkpt>
      <trkpt lat="50.24545" lon="2.20239">
        <ele>69.35</ele>
        <time>2022-09-21T12:32:00Z</time>
      </trkpt>
      <trkpt lat="50.24556" lon="2.20253">
        <ele>70.31</ele>
        <time>2022-09-21T12:32:11Z</time>
      </trkpt>
      <trkpt lat="50.24568" lon="2.20271">
        <ele>71.27</ele>
        <time>2022-09-21T12:32:23Z</time>
      </trkpt>
      <trkpt lat="50.24579" lon="2.20293">
        <ele>72.24</ele>
        <time>2022-09-21T12:32:36Z</time>
      </trkpt>
      <trkpt lat="50.24591" lon="2.20318">
        <ele>74.64</ele>
        <time>2022-09-21T12:32:49Z</time>
      </trkpt>
      <trkpt lat="50.24604" lon="2.20341">
        <ele>76.08</ele>
        <time>2022-09-21T12:33:03Z</time>
      </trkpt>
      <trkpt lat="50.24612" lon="2.20363">
        <ele>77.04</ele>
        <time>2022-09-21T12:33:16Z</time>
      </trkpt>
      <trkpt lat="50.24617" lon="2.20376">
        <ele>77.52</ele>
        <time>2022-09-21T12:33:25Z</time>
      </trkpt>
      <trkpt lat="50.24623" lon="2.20393">
        <ele>79.45</ele>
        <time>2022-09-21T12:33:34Z</time>
      </trkpt>
      <trkpt lat="50.24626" lon="2.204">
        <ele>80.41</ele>
        <time>2022-09-21T12:33:38Z</time>
      </trkpt>
      <trkpt lat="50.24628" lon="2.20407">
        <ele>79.93</ele>
        <time>2022-09-21T12:33:43Z</time>
      </trkpt>
      <trkpt lat="50.24634" lon="2.2043">
        <ele>77.04</ele>
        <time>2022-09-21T12:33:56Z</time>
      </trkpt>
      <trkpt lat="50.24637" lon="2.20449">
        <ele>73.68</ele>
        <time>2022-09-21T12:34:07Z</time>
      </trkpt>
      <trkpt lat="50.24644" lon="2.20469">
        <ele>72.72</ele>
        <time>2022-09-21T12:34:18Z</time>
      </trkpt>
      <trkpt lat="50.2465" lon="2.20498">
        <ele>72.72</ele>
        <time>2022-09-21T12:34:33Z</time>
      </trkpt>
      <trkpt lat="50.24656" lon="2.20523">
        <ele>73.2</ele>
        <time>2022-09-21T12:34:46Z</time>
      </trkpt>
      <trkpt lat="50.2466" lon="2.20539">
        <ele>73.2</ele>
        <time>2022-09-21T12:34:54Z</time>
      </trkpt>
      <trkpt lat="50.24668" lon="2.20568">
        <ele>71.76</ele>
        <time>2022-09-21T12:35:09Z</time>
      </trkpt>
      <trkpt lat="50.24674" lon="2.20585">
        <ele>72.24</ele>
        <time>2022-09-21T12:35:19Z</time>
      </trkpt>
      <trkpt lat="50.24683" lon="2.20604">
        <ele>74.64</ele>
        <time>2022-09-21T12:35:29Z</time>
      </trkpt>
      <trkpt lat="50.24692" lon="2.2063">
        <ele>80.41</ele>
        <time>2022-09-21T12:35:41Z</time>
      </trkpt>
      <trkpt lat="50.24698" lon="2.20654">
        <ele>81.37</ele>
        <time>2022-09-21T12:35:55Z</time>
      </trkpt>
      <trkpt lat="50.24707" lon="2.20675">
        <ele>78.97</ele>
        <time>2022-09-21T12:36:08Z</time>
      </trkpt>
      <trkpt lat="50.24708" lon="2.20677">
        <ele>78.48</ele>
        <time>2022-09-21T12:36:09Z</time>
      </trkpt>
      <trkpt lat="50.24713" lon="2.20699">
        <ele>75.12</ele>
        <time>2022-09-21T12:36:22Z</time>
      </trkpt>
      <trkpt lat="50.24723" lon="2.20721">
        <ele>70.31</ele>
        <time>2022-09-21T12:36:36Z</time>
      </trkpt>
      <trkpt lat="50.24728" lon="2.20746">
        <ele>70.31</ele>
        <time>2022-09-21T12:36:48Z</time>
      </trkpt>
      <trkpt lat="50.2474" lon="2.20769">
        <ele>72.72</ele>
        <time>2022-09-21T12:37:01Z</time>
      </trkpt>
      <trkpt lat="50.24753" lon="2.20791">
        <ele>78</ele>
        <time>2022-09-21T12:37:15Z</time>
      </trkpt>
      <trkpt lat="50.24764" lon="2.20813">
        <ele>78.97</ele>
        <time>2022-09-21T12:37:29Z</time>
      </trkpt>
      <trkpt lat="50.24774" lon="2.2083">
        <ele>80.41</ele>
        <time>2022-09-21T12:37:40Z</time>
      </trkpt>
      <trkpt lat="50.24781" lon="2.20851">
        <ele>83.29</ele>
        <time>2022-09-21T12:37:54Z</time>
      </trkpt>
      <trkpt lat="50.24786" lon="2.2086">
        <ele>83.77</ele>
        <time>2022-09-21T12:38:06Z</time>
      </trkpt>
      <trkpt lat="50.24788" lon="2.20862">
        <ele>85.21</ele>
        <time>2022-09-21T12:38:24Z</time>
      </trkpt>
      <trkpt lat="50.2479" lon="2.20868">
        <ele>90.02</ele>
        <time>2022-09-21T12:38:52Z</time>
      </trkpt>
      <trkpt lat="50.2479" lon="2.20869">
        <ele>93.39</ele>
        <time>2022-09-21T12:39:16Z</time>
      </trkpt>
      <trkpt lat="50.2479" lon="2.20869">
        <ele>94.35</ele>
        <time>2022-09-21T12:39:31Z</time>
      </trkpt>
      <trkpt lat="50.2479" lon="2.20869">
        <ele>94.35</ele>
        <time>2022-09-21T12:39:44Z</time>
      </trkpt>
      <trkpt lat="50.24798" lon="2.20881">
        <ele>94.83</ele>
        <time>2022-09-21T12:39:55Z</time>
      </trkpt>
      <trkpt lat="50.24807" lon="2.20894">
        <ele>94.35</ele>
        <time>2022-09-21T12:40:06Z</time>
      </trkpt>
      <trkpt lat="50.24815" lon="2.20905">
        <ele>93.39</ele>
        <time>2022-09-21T12:40:16Z</time>
      </trkpt>
      <trkpt lat="50.24823" lon="2.20917">
        <ele>92.42</ele>
        <time>2022-09-21T12:40:27Z</time>
      </trkpt>
      <trkpt lat="50.24829" lon="2.20925">
        <ele>91.94</ele>
        <time>2022-09-21T12:40:34Z</time>
      </trkpt>
      <trkpt lat="50.2484" lon="2.20943">
        <ele>91.46</ele>
        <time>2022-09-21T12:40:47Z</time>
      </trkpt>
      <trkpt lat="50.24849" lon="2.20957">
        <ele>90.02</ele>
        <time>2022-09-21T12:40:59Z</time>
      </trkpt>
      <trkpt lat="50.24861" lon="2.2097">
        <ele>92.42</ele>
        <time>2022-09-21T12:41:10Z</time>
      </trkpt>
      <trkpt lat="50.24868" lon="2.20978">
        <ele>92.9</ele>
        <time>2022-09-21T12:41:22Z</time>
      </trkpt>
      <trkpt lat="50.24878" lon="2.20994">
        <ele>90.5</ele>
        <time>2022-09-21T12:41:35Z</time>
      </trkpt>
      <trkpt lat="50.24889" lon="2.2101">
        <ele>89.54</ele>
        <time>2022-09-21T12:41:48Z</time>
      </trkpt>
      <trkpt lat="50.24901" lon="2.21024">
        <ele>87.14</ele>
        <time>2022-09-21T12:41:59Z</time>
      </trkpt>
      <trkpt lat="50.24904" lon="2.21028">
        <ele>86.66</ele>
        <time>2022-09-21T12:42:03Z</time>
      </trkpt>
      <trkpt lat="50.24915" lon="2.21044">
        <ele>85.69</ele>
        <time>2022-09-21T12:42:16Z</time>
      </trkpt>
      <trkpt lat="50.24922" lon="2.21057">
        <ele>85.21</ele>
        <time>2022-09-21T12:42:26Z</time>
      </trkpt>
      <trkpt lat="50.24933" lon="2.2107">
        <ele>88.1</ele>
        <time>2022-09-21T12:42:38Z</time>
      </trkpt>
      <trkpt lat="50.24945" lon="2.21082">
        <ele>91.94</ele>
        <time>2022-09-21T12:42:50Z</time>
      </trkpt>
      <trkpt lat="50.24957" lon="2.21097">
        <ele>94.35</ele>
        <time>2022-09-21T12:43:02Z</time>
      </trkpt>
      <trkpt lat="50.2496" lon="2.211">
        <ele>94.83</ele>
        <time>2022-09-21T12:43:05Z</time>
      </trkpt>
      <trkpt lat="50.24969" lon="2.21112">
        <ele>95.79</ele>
        <time>2022-09-21T12:43:17Z</time>
      </trkpt>
      <trkpt lat="50.2498" lon="2.21128">
        <ele>95.31</ele>
        <time>2022-09-21T12:43:29Z</time>
      </trkpt>
      <trkpt lat="50.24988" lon="2.21144">
        <ele>94.35</ele>
        <time>2022-09-21T12:43:39Z</time>
      </trkpt>
      <trkpt lat="50.24995" lon="2.21164">
        <ele>91.46</ele>
        <time>2022-09-21T12:43:52Z</time>
      </trkpt>
      <trkpt lat="50.24996" lon="2.21166">
        <ele>91.46</ele>
        <time>2022-09-21T12:43:53Z</time>
      </trkpt>
      <trkpt lat="50.25005" lon="2.21183">
        <ele>88.1</ele>
        <time>2022-09-21T12:44:05Z</time>
      </trkpt>
      <trkpt lat="50.25007" lon="2.21188">
        <ele>87.14</ele>
        <time>2022-09-21T12:44:08Z</time>
      </trkpt>
      <trkpt lat="50.25013" lon="2.21211">
        <ele>84.25</ele>
        <time>2022-09-21T12:44:21Z</time>
      </trkpt>
      <trkpt lat="50.25023" lon="2.21233">
        <ele>88.1</ele>
        <time>2022-09-21T12:44:33Z</time>
      </trkpt>
      <trkpt lat="50.25032" lon="2.21252">
        <ele>91.46</ele>
        <time>2022-09-21T12:44:45Z</time>
      </trkpt>
      <trkpt lat="50.25035" lon="2.21259">
        <ele>92.9</ele>
        <time>2022-09-21T12:44:49Z</time>
      </trkpt>
      <trkpt lat="50.2504" lon="2.21281">
        <ele>95.79</ele>
        <time>2022-09-21T12:45:02Z</time>
      </trkpt>
      <trkpt lat="50.25046" lon="2.21294">
        <ele>97.23</ele>
        <time>2022-09-21T12:45:11Z</time>
      </trkpt>
      <trkpt lat="50.25051" lon="2.21311">
        <ele>97.23</ele>
        <time>2022-09-21T12:45:21Z</time>
      </trkpt>
      <trkpt lat="50.25056" lon="2.21328">
        <ele>96.27</ele>
        <time>2022-09-21T12:45:32Z</time>
      </trkpt>
      <trkpt lat="50.25065" lon="2.21344">
        <ele>93.87</ele>
        <time>2022-09-21T12:45:43Z</time>
      </trkpt>
      <trkpt lat="50.25075" lon="2.21371">
        <ele>91.94</ele>
        <time>2022-09-21T12:45:57Z</time>
      </trkpt>
      <trkpt lat="50.2508" lon="2.21396">
        <ele>90.98</ele>
        <time>2022-09-21T12:46:10Z</time>
      </trkpt>
      <trkpt lat="50.25086" lon="2.2142">
        <ele>91.46</ele>
        <time>2022-09-21T12:46:22Z</time>
      </trkpt>
      <trkpt lat="50.25092" lon="2.21442">
        <ele>91.94</ele>
        <time>2022-09-21T12:46:34Z</time>
      </trkpt>
      <trkpt lat="50.25097" lon="2.21468">
        <ele>92.9</ele>
        <time>2022-09-21T12:46:46Z</time>
      </trkpt>
      <trkpt lat="50.25103" lon="2.21493">
        <ele>94.35</ele>
        <time>2022-09-21T12:46:58Z</time>
      </trkpt>
      <trkpt lat="50.25109" lon="2.21515">
        <ele>92.42</ele>
        <time>2022-09-21T12:47:12Z</time>
      </trkpt>
      <trkpt lat="50.25114" lon="2.21538">
        <ele>90.02</ele>
        <time>2022-09-21T12:47:25Z</time>
      </trkpt>
      <trkpt lat="50.25114" lon="2.21542">
        <ele>90.02</ele>
        <time>2022-09-21T12:47:27Z</time>
      </trkpt>
      <trkpt lat="50.25118" lon="2.21564">
        <ele>90.98</ele>
        <time>2022-09-21T12:47:38Z</time>
      </trkpt>
      <trkpt lat="50.25119" lon="2.21573">
        <ele>90.98</ele>
        <time>2022-09-21T12:47:43Z</time>
      </trkpt>
      <trkpt lat="50.25121" lon="2.21579">
        <ele>90.98</ele>
        <time>2022-09-21T12:47:46Z</time>
      </trkpt>
      <trkpt lat="50.25125" lon="2.21602">
        <ele>89.54</ele>
        <time>2022-09-21T12:47:57Z</time>
      </trkpt>
      <trkpt lat="50.25131" lon="2.2162">
        <ele>86.66</ele>
        <time>2022-09-21T12:48:08Z</time>
      </trkpt>
      <trkpt lat="50.25138" lon="2.21633">
        <ele>84.73</ele>
        <time>2022-09-21T12:48:16Z</time>
      </trkpt>
      <trkpt lat="50.25144" lon="2.21648">
        <ele>82.81</ele>
        <time>2022-09-21T12:48:26Z</time>
      </trkpt>
      <trkpt lat="50.25152" lon="2.2167">
        <ele>82.81</ele>
        <time>2022-09-21T12:48:40Z</time>
      </trkpt>
      <trkpt lat="50.25152" lon="2.21672">
        <ele>82.81</ele>
        <time>2022-09-21T12:48:41Z</time>
      </trkpt>
      <trkpt lat="50.25165" lon="2.21696">
        <ele>90.5</ele>
        <time>2022-09-21T12:48:52Z</time>
      </trkpt>
      <trkpt lat="50.2517" lon="2.21709">
        <ele>96.27</ele>
        <time>2022-09-21T12:48:59Z</time>
      </trkpt>
      <trkpt lat="50.25178" lon="2.21723">
        <ele>99.15</ele>
        <time>2022-09-21T12:49:09Z</time>
      </trkpt>
      <trkpt lat="50.25179" lon="2.21725">
        <ele>98.67</ele>
        <time>2022-09-21T12:49:11Z</time>
      </trkpt>
      <trkpt lat="50.25187" lon="2.21743">
        <ele>97.71</ele>
        <time>2022-09-21T12:49:23Z</time>
      </trkpt>
      <trkpt lat="50.25194" lon="2.2176">
        <ele>97.23</ele>
        <time>2022-09-21T12:49:34Z</time>
      </trkpt>
      <trkpt lat="50.25208" lon="2.21784">
        <ele>97.23</ele>
        <time>2022-09-21T12:49:48Z</time>
      </trkpt>
      <trkpt lat="50.25223" lon="2.21802">
        <ele>100.6</ele>
        <time>2022-09-21T12:50:02Z</time>
      </trkpt>
      <trkpt lat="50.25231" lon="2.21814">
        <ele>100.6</ele>
        <time>2022-09-21T12:50:11Z</time>
      </trkpt>
      <trkpt lat="50.25243" lon="2.21832">
        <ele>99.63</ele>
        <time>2022-09-21T12:50:25Z</time>
      </trkpt>
      <trkpt lat="50.25256" lon="2.21848">
        <ele>100.11</ele>
        <time>2022-09-21T12:50:38Z</time>
      </trkpt>
      <trkpt lat="50.25267" lon="2.21864">
        <ele>100.6</ele>
        <time>2022-09-21T12:50:50Z</time>
      </trkpt>
      <trkpt lat="50.25277" lon="2.21877">
        <ele>99.63</ele>
        <time>2022-09-21T12:51:01Z</time>
      </trkpt>
      <trkpt lat="50.25289" lon="2.21894">
        <ele>97.71</ele>
        <time>2022-09-21T12:51:14Z</time>
      </trkpt>
      <trkpt lat="50.25301" lon="2.21913">
        <ele>97.23</ele>
        <time>2022-09-21T12:51:26Z</time>
      </trkpt>
      <trkpt lat="50.25308" lon="2.21924">
        <ele>97.71</ele>
        <time>2022-09-21T12:51:34Z</time>
      </trkpt>
      <trkpt lat="50.25319" lon="2.21938">
        <ele>101.08</ele>
        <time>2022-09-21T12:51:46Z</time>
      </trkpt>
      <trkpt lat="50.25328" lon="2.21952">
        <ele>105.4</ele>
        <time>2022-09-21T12:51:57Z</time>
      </trkpt>
      <trkpt lat="50.25337" lon="2.21965">
        <ele>107.32</ele>
        <time>2022-09-21T12:52:07Z</time>
      </trkpt>
      <trkpt lat="50.25344" lon="2.21976">
        <ele>109.25</ele>
        <time>2022-09-21T12:52:17Z</time>
      </trkpt>
      <trkpt lat="50.25357" lon="2.21993">
        <ele>106.84</ele>
        <time>2022-09-21T12:52:30Z</time>
      </trkpt>
      <trkpt lat="50.25365" lon="2.22006">
        <ele>104.44</ele>
        <time>2022-09-21T12:52:40Z</time>
      </trkpt>
      <trkpt lat="50.25377" lon="2.22024">
        <ele>105.88</ele>
        <time>2022-09-21T12:52:52Z</time>
      </trkpt>
      <trkpt lat="50.25388" lon="2.22038">
        <ele>105.4</ele>
        <time>2022-09-21T12:53:03Z</time>
      </trkpt>
      <trkpt lat="50.25395" lon="2.22045">
        <ele>105.4</ele>
        <time>2022-09-21T12:53:08Z</time>
      </trkpt>
      <trkpt lat="50.25398" lon="2.22047">
        <ele>105.4</ele>
        <time>2022-09-21T12:53:11Z</time>
      </trkpt>
      <trkpt lat="50.25408" lon="2.22061">
        <ele>106.36</ele>
        <time>2022-09-21T12:53:23Z</time>
      </trkpt>
      <trkpt lat="50.25419" lon="2.22074">
        <ele>105.4</ele>
        <time>2022-09-21T12:53:35Z</time>
      </trkpt>
      <trkpt lat="50.25427" lon="2.22086">
        <ele>103.48</ele>
        <time>2022-09-21T12:53:46Z</time>
      </trkpt>
      <trkpt lat="50.25437" lon="2.22103">
        <ele>102.52</ele>
        <time>2022-09-21T12:53:58Z</time>
      </trkpt>
      <trkpt lat="50.25451" lon="2.22124">
        <ele>103.96</ele>
        <time>2022-09-21T12:54:12Z</time>
      </trkpt>
      <trkpt lat="50.25462" lon="2.22146">
        <ele>105.4</ele>
        <time>2022-09-21T12:54:25Z</time>
      </trkpt>
      <trkpt lat="50.25473" lon="2.22162">
        <ele>106.84</ele>
        <time>2022-09-21T12:54:38Z</time>
      </trkpt>
      <trkpt lat="50.25486" lon="2.22178">
        <ele>106.36</ele>
        <time>2022-09-21T12:54:51Z</time>
      </trkpt>
      <trkpt lat="50.25496" lon="2.22189">
        <ele>108.77</ele>
        <time>2022-09-21T12:55:00Z</time>
      </trkpt>
      <trkpt lat="50.25509" lon="2.22202">
        <ele>110.69</ele>
        <time>2022-09-21T12:55:12Z</time>
      </trkpt>
      <trkpt lat="50.25518" lon="2.22211">
        <ele>110.69</ele>
        <time>2022-09-21T12:55:23Z</time>
      </trkpt>
      <trkpt lat="50.25533" lon="2.22224">
        <ele>112.13</ele>
        <time>2022-09-21T12:55:34Z</time>
      </trkpt>
      <trkpt lat="50.25549" lon="2.22236">
        <ele>115.01</ele>
        <time>2022-09-21T12:55:47Z</time>
      </trkpt>
      <trkpt lat="50.2556" lon="2.22245">
        <ele>115.01</ele>
        <time>2022-09-21T12:55:58Z</time>
      </trkpt>
      <trkpt lat="50.25574" lon="2.22261">
        <ele>114.05</ele>
        <time>2022-09-21T12:56:11Z</time>
      </trkpt>
      <trkpt lat="50.25587" lon="2.22273">
        <ele>113.09</ele>
        <time>2022-09-21T12:56:25Z</time>
      </trkpt>
      <trkpt lat="50.25599" lon="2.22281">
        <ele>112.13</ele>
        <time>2022-09-21T12:56:37Z</time>
      </trkpt>
      <trkpt lat="50.25609" lon="2.22287">
        <ele>111.65</ele>
        <time>2022-09-21T12:56:48Z</time>
      </trkpt>
      <trkpt lat="50.25623" lon="2.22297">
        <ele>113.09</ele>
        <time>2022-09-21T12:57:00Z</time>
      </trkpt>
      <trkpt lat="50.25638" lon="2.22307">
        <ele>114.05</ele>
        <time>2022-09-21T12:57:13Z</time>
      </trkpt>
      <trkpt lat="50.25654" lon="2.22316">
        <ele>113.09</ele>
        <time>2022-09-21T12:57:25Z</time>
      </trkpt>
      <trkpt lat="50.25664" lon="2.22319">
        <ele>112.61</ele>
        <time>2022-09-21T12:57:35Z</time>
      </trkpt>
      <trkpt lat="50.25678" lon="2.22327">
        <ele>113.57</ele>
        <time>2022-09-21T12:57:47Z</time>
      </trkpt>
      <trkpt lat="50.2569" lon="2.22339">
        <ele>114.53</ele>
        <time>2022-09-21T12:57:59Z</time>
      </trkpt>
      <trkpt lat="50.25702" lon="2.22349">
        <ele>117.42</ele>
        <time>2022-09-21T12:58:11Z</time>
      </trkpt>
      <trkpt lat="50.25716" lon="2.22362">
        <ele>115.98</ele>
        <time>2022-09-21T12:58:25Z</time>
      </trkpt>
      <trkpt lat="50.25731" lon="2.22373">
        <ele>115.01</ele>
        <time>2022-09-21T12:58:39Z</time>
      </trkpt>
      <trkpt lat="50.25744" lon="2.22381">
        <ele>115.5</ele>
        <time>2022-09-21T12:58:51Z</time>
      </trkpt>
      <trkpt lat="50.25756" lon="2.2239">
        <ele>116.46</ele>
        <time>2022-09-21T12:59:03Z</time>
      </trkpt>
      <trkpt lat="50.25767" lon="2.22397">
        <ele>116.94</ele>
        <time>2022-09-21T12:59:13Z</time>
      </trkpt>
      <trkpt lat="50.25775" lon="2.22405">
        <ele>118.38</ele>
        <time>2022-09-21T12:59:23Z</time>
      </trkpt>
      <trkpt lat="50.25783" lon="2.22411">
        <ele>118.38</ele>
        <time>2022-09-21T12:59:34Z</time>
      </trkpt>
      <trkpt lat="50.25795" lon="2.22421">
        <ele>119.34</ele>
        <time>2022-09-21T12:59:49Z</time>
      </trkpt>
      <trkpt lat="50.25802" lon="2.22429">
        <ele>119.82</ele>
        <time>2022-09-21T13:00:01Z</time>
      </trkpt>
      <trkpt lat="50.2581" lon="2.22437">
        <ele>119.82</ele>
        <time>2022-09-21T13:00:11Z</time>
      </trkpt>
      <trkpt lat="50.25821" lon="2.22451">
        <ele>119.34</ele>
        <time>2022-09-21T13:00:25Z</time>
      </trkpt>
      <trkpt lat="50.25821" lon="2.22451">
        <ele>119.34</ele>
        <time>2022-09-21T13:00:27Z</time>
      </trkpt>
      <trkpt lat="50.25824" lon="2.22451">
        <ele>119.34</ele>
        <time>2022-09-21T13:00:30Z</time>
      </trkpt>
      <trkpt lat="50.25826" lon="2.22457">
        <ele>119.82</ele>
        <time>2022-09-21T13:00:40Z</time>
      </trkpt>
      <trkpt lat="50.25827" lon="2.22458">
        <ele>119.82</ele>
        <time>2022-09-21T13:00:54Z</time>
      </trkpt>
      <trkpt lat="50.25827" lon="2.22458">
        <ele>118.86</ele>
        <time>2022-09-21T13:01:07Z</time>
      </trkpt>
      <trkpt lat="50.25826" lon="2.22458">
        <ele>112.13</ele>
        <time>2022-09-21T13:01:28Z</time>
      </trkpt>
      <trkpt lat="50.25825" lon="2.22457">
        <ele>111.65</ele>
        <time>2022-09-21T13:01:48Z</time>
      </trkpt>
      <trkpt lat="50.25825" lon="2.22455">
        <ele>112.61</ele>
        <time>2022-09-21T13:01:55Z</time>
      </trkpt>
      <trkpt lat="50.25813" lon="2.22438">
        <ele>114.53</ele>
        <time>2022-09-21T13:02:10Z</time>
      </trkpt>
      <trkpt lat="50.25801" lon="2.22425">
        <ele>113.57</ele>
        <time>2022-09-21T13:02:23Z</time>
      </trkpt>
      <trkpt lat="50.25788" lon="2.2241">
        <ele>113.09</ele>
        <time>2022-09-21T13:02:36Z</time>
      </trkpt>
      <trkpt lat="50.25774" lon="2.22398">
        <ele>112.61</ele>
        <time>2022-09-21T13:02:49Z</time>
      </trkpt>
      <trkpt lat="50.25759" lon="2.22387">
        <ele>112.61</ele>
        <time>2022-09-21T13:03:02Z</time>
      </trkpt>
      <trkpt lat="50.25741" lon="2.22372">
        <ele>112.13</ele>
        <time>2022-09-21T13:03:17Z</time>
      </trkpt>
      <trkpt lat="50.25728" lon="2.22361">
        <ele>111.17</ele>
        <time>2022-09-21T13:03:29Z</time>
      </trkpt>
      <trkpt lat="50.25716" lon="2.2235">
        <ele>111.65</ele>
        <time>2022-09-21T13:03:41Z</time>
      </trkpt>
      <trkpt lat="50.257" lon="2.22338">
        <ele>111.65</ele>
        <time>2022-09-21T13:03:54Z</time>
      </trkpt>
      <trkpt lat="50.25683" lon="2.22326">
        <ele>110.21</ele>
        <time>2022-09-21T13:04:08Z</time>
      </trkpt>
      <trkpt lat="50.2567" lon="2.22314">
        <ele>108.77</ele>
        <time>2022-09-21T13:04:21Z</time>
      </trkpt>
      <trkpt lat="50.25659" lon="2.22305">
        <ele>104.92</ele>
        <time>2022-09-21T13:04:33Z</time>
      </trkpt>
      <trkpt lat="50.25648" lon="2.22296">
        <ele>102.52</ele>
        <time>2022-09-21T13:04:44Z</time>
      </trkpt>
      <trkpt lat="50.25636" lon="2.22287">
        <ele>101.56</ele>
        <time>2022-09-21T13:04:55Z</time>
      </trkpt>
      <trkpt lat="50.25621" lon="2.22275">
        <ele>101.56</ele>
        <time>2022-09-21T13:05:08Z</time>
      </trkpt>
      <trkpt lat="50.256" lon="2.22262">
        <ele>103</ele>
        <time>2022-09-21T13:05:22Z</time>
      </trkpt>
      <trkpt lat="50.25591" lon="2.22252">
        <ele>103</ele>
        <time>2022-09-21T13:05:30Z</time>
      </trkpt>
      <trkpt lat="50.25574" lon="2.22232">
        <ele>103.96</ele>
        <time>2022-09-21T13:05:42Z</time>
      </trkpt>
      <trkpt lat="50.25565" lon="2.22211">
        <ele>103.48</ele>
        <time>2022-09-21T13:05:55Z</time>
      </trkpt>
      <trkpt lat="50.25558" lon="2.22195">
        <ele>104.44</ele>
        <time>2022-09-21T13:06:06Z</time>
      </trkpt>
      <trkpt lat="50.25551" lon="2.22174">
        <ele>103.96</ele>
        <time>2022-09-21T13:06:18Z</time>
      </trkpt>
      <trkpt lat="50.25548" lon="2.22167">
        <ele>103.96</ele>
        <time>2022-09-21T13:06:22Z</time>
      </trkpt>
      <trkpt lat="50.2554" lon="2.22148">
        <ele>103</ele>
        <time>2022-09-21T13:06:33Z</time>
      </trkpt>
      <trkpt lat="50.25532" lon="2.22129">
        <ele>102.52</ele>
        <time>2022-09-21T13:06:44Z</time>
      </trkpt>
      <trkpt lat="50.25521" lon="2.22103">
        <ele>103</ele>
        <time>2022-09-21T13:06:59Z</time>
      </trkpt>
      <trkpt lat="50.25509" lon="2.22086">
        <ele>103</ele>
        <time>2022-09-21T13:07:12Z</time>
      </trkpt>
      <trkpt lat="50.25498" lon="2.22072">
        <ele>99.63</ele>
        <time>2022-09-21T13:07:24Z</time>
      </trkpt>
      <trkpt lat="50.25486" lon="2.22062">
        <ele>98.67</ele>
        <time>2022-09-21T13:07:36Z</time>
      </trkpt>
      <trkpt lat="50.25474" lon="2.22053">
        <ele>97.23</ele>
        <time>2022-09-21T13:07:47Z</time>
      </trkpt>
      <trkpt lat="50.25463" lon="2.22043">
        <ele>95.79</ele>
        <time>2022-09-21T13:07:57Z</time>
      </trkpt>
      <trkpt lat="50.25452" lon="2.22032">
        <ele>94.83</ele>
        <time>2022-09-21T13:08:09Z</time>
      </trkpt>
      <trkpt lat="50.25439" lon="2.22017">
        <ele>94.35</ele>
        <time>2022-09-21T13:08:22Z</time>
      </trkpt>
      <trkpt lat="50.25429" lon="2.22002">
        <ele>93.39</ele>
        <time>2022-09-21T13:08:31Z</time>
      </trkpt>
      <trkpt lat="50.25428" lon="2.22">
        <ele>93.39</ele>
        <time>2022-09-21T13:08:32Z</time>
      </trkpt>
      <trkpt lat="50.25417" lon="2.21982">
        <ele>91.46</ele>
        <time>2022-09-21T13:08:43Z</time>
      </trkpt>
      <trkpt lat="50.25408" lon="2.21963">
        <ele>90.5</ele>
        <time>2022-09-21T13:08:55Z</time>
      </trkpt>
      <trkpt lat="50.254" lon="2.2194">
        <ele>91.46</ele>
        <time>2022-09-21T13:09:07Z</time>
      </trkpt>
      <trkpt lat="50.25395" lon="2.21932">
        <ele>93.87</ele>
        <time>2022-09-21T13:09:14Z</time>
      </trkpt>
      <trkpt lat="50.25393" lon="2.21929">
        <ele>94.83</ele>
        <time>2022-09-21T13:09:16Z</time>
      </trkpt>
      <trkpt lat="50.25382" lon="2.21906">
        <ele>94.83</ele>
        <time>2022-09-21T13:09:29Z</time>
      </trkpt>
      <trkpt lat="50.25379" lon="2.21898">
        <ele>94.35</ele>
        <time>2022-09-21T13:09:33Z</time>
      </trkpt>
      <trkpt lat="50.25377" lon="2.21891">
        <ele>93.87</ele>
        <time>2022-09-21T13:09:37Z</time>
      </trkpt>
      <trkpt lat="50.25364" lon="2.21873">
        <ele>92.9</ele>
        <time>2022-09-21T13:09:48Z</time>
      </trkpt>
      <trkpt lat="50.2536" lon="2.21868">
        <ele>93.87</ele>
        <time>2022-09-21T13:09:52Z</time>
      </trkpt>
      <trkpt lat="50.2535" lon="2.21857">
        <ele>94.83</ele>
        <time>2022-09-21T13:10:04Z</time>
      </trkpt>
      <trkpt lat="50.25336" lon="2.21842">
        <ele>96.27</ele>
        <time>2022-09-21T13:10:16Z</time>
      </trkpt>
      <trkpt lat="50.25319" lon="2.21826">
        <ele>99.15</ele>
        <time>2022-09-21T13:10:31Z</time>
      </trkpt>
      <trkpt lat="50.25313" lon="2.21823">
        <ele>99.63</ele>
        <time>2022-09-21T13:10:36Z</time>
      </trkpt>
      <trkpt lat="50.25301" lon="2.21809">
        <ele>99.15</ele>
        <time>2022-09-21T13:10:48Z</time>
      </trkpt>
      <trkpt lat="50.25288" lon="2.21792">
        <ele>98.19</ele>
        <time>2022-09-21T13:11:00Z</time>
      </trkpt>
      <trkpt lat="50.25272" lon="2.21771">
        <ele>97.71</ele>
        <time>2022-09-21T13:11:14Z</time>
      </trkpt>
      <trkpt lat="50.25252" lon="2.21742">
        <ele>100.11</ele>
        <time>2022-09-21T13:11:31Z</time>
      </trkpt>
      <trkpt lat="50.25238" lon="2.21715">
        <ele>100.6</ele>
        <time>2022-09-21T13:11:46Z</time>
      </trkpt>
      <trkpt lat="50.25228" lon="2.21698">
        <ele>99.63</ele>
        <time>2022-09-21T13:11:57Z</time>
      </trkpt>
      <trkpt lat="50.25218" lon="2.21679">
        <ele>100.6</ele>
        <time>2022-09-21T13:12:09Z</time>
      </trkpt>
      <trkpt lat="50.25211" lon="2.21668">
        <ele>102.04</ele>
        <time>2022-09-21T13:12:17Z</time>
      </trkpt>
      <trkpt lat="50.25196" lon="2.21641">
        <ele>106.36</ele>
        <time>2022-09-21T13:12:33Z</time>
      </trkpt>
      <trkpt lat="50.25182" lon="2.21616">
        <ele>107.81</ele>
        <time>2022-09-21T13:12:48Z</time>
      </trkpt>
      <trkpt lat="50.25176" lon="2.21592">
        <ele>104.92</ele>
        <time>2022-09-21T13:12:59Z</time>
      </trkpt>
      <trkpt lat="50.25172" lon="2.21563">
        <ele>103.96</ele>
        <time>2022-09-21T13:13:13Z</time>
      </trkpt>
      <trkpt lat="50.25167" lon="2.21531">
        <ele>103.48</ele>
        <time>2022-09-21T13:13:28Z</time>
      </trkpt>
      <trkpt lat="50.25164" lon="2.21503">
        <ele>103</ele>
        <time>2022-09-21T13:13:40Z</time>
      </trkpt>
      <trkpt lat="50.25164" lon="2.21477">
        <ele>99.63</ele>
        <time>2022-09-21T13:13:52Z</time>
      </trkpt>
      <trkpt lat="50.25162" lon="2.21454">
        <ele>96.75</ele>
        <time>2022-09-21T13:14:03Z</time>
      </trkpt>
      <trkpt lat="50.25162" lon="2.21424">
        <ele>94.35</ele>
        <time>2022-09-21T13:14:17Z</time>
      </trkpt>
      <trkpt lat="50.25161" lon="2.21416">
        <ele>93.87</ele>
        <time>2022-09-21T13:14:21Z</time>
      </trkpt>
      <trkpt lat="50.25159" lon="2.21391">
        <ele>92.42</ele>
        <time>2022-09-21T13:14:34Z</time>
      </trkpt>
      <trkpt lat="50.25158" lon="2.21384">
        <ele>92.42</ele>
        <time>2022-09-21T13:14:37Z</time>
      </trkpt>
      <trkpt lat="50.25156" lon="2.21375">
        <ele>90.98</ele>
        <time>2022-09-21T13:14:42Z</time>
      </trkpt>
      <trkpt lat="50.25152" lon="2.2135">
        <ele>90.5</ele>
        <time>2022-09-21T13:14:55Z</time>
      </trkpt>
      <trkpt lat="50.25148" lon="2.21325">
        <ele>90.02</ele>
        <time>2022-09-21T13:15:07Z</time>
      </trkpt>
      <trkpt lat="50.2514" lon="2.21293">
        <ele>89.06</ele>
        <time>2022-09-21T13:15:23Z</time>
      </trkpt>
      <trkpt lat="50.25132" lon="2.21269">
        <ele>88.1</ele>
        <time>2022-09-21T13:15:36Z</time>
      </trkpt>
      <trkpt lat="50.2512" lon="2.21245">
        <ele>87.14</ele>
        <time>2022-09-21T13:15:51Z</time>
      </trkpt>
      <trkpt lat="50.25111" lon="2.2123">
        <ele>85.69</ele>
        <time>2022-09-21T13:16:01Z</time>
      </trkpt>
      <trkpt lat="50.25109" lon="2.21223">
        <ele>84.73</ele>
        <time>2022-09-21T13:16:06Z</time>
      </trkpt>
      <trkpt lat="50.25104" lon="2.21211">
        <ele>82.33</ele>
        <time>2022-09-21T13:16:14Z</time>
      </trkpt>
      <trkpt lat="50.2509" lon="2.21189">
        <ele>78</ele>
        <time>2022-09-21T13:16:28Z</time>
      </trkpt>
      <trkpt lat="50.25078" lon="2.21166">
        <ele>76.08</ele>
        <time>2022-09-21T13:16:42Z</time>
      </trkpt>
      <trkpt lat="50.25068" lon="2.21144">
        <ele>74.16</ele>
        <time>2022-09-21T13:16:55Z</time>
      </trkpt>
      <trkpt lat="50.25059" lon="2.21123">
        <ele>73.2</ele>
        <time>2022-09-21T13:17:07Z</time>
      </trkpt>
      <trkpt lat="50.2505" lon="2.21101">
        <ele>74.64</ele>
        <time>2022-09-21T13:17:19Z</time>
      </trkpt>
      <trkpt lat="50.25039" lon="2.21072">
        <ele>76.56</ele>
        <time>2022-09-21T13:17:36Z</time>
      </trkpt>
      <trkpt lat="50.25025" lon="2.21044">
        <ele>78.97</ele>
        <time>2022-09-21T13:17:52Z</time>
      </trkpt>
      <trkpt lat="50.25017" lon="2.21021">
        <ele>79.45</ele>
        <time>2022-09-21T13:18:06Z</time>
      </trkpt>
      <trkpt lat="50.25018" lon="2.21015">
        <ele>80.41</ele>
        <time>2022-09-21T13:18:16Z</time>
      </trkpt>
      <trkpt lat="50.25018" lon="2.21014">
        <ele>80.89</ele>
        <time>2022-09-21T13:18:35Z</time>
      </trkpt>
      <trkpt lat="50.25018" lon="2.21013">
        <ele>81.37</ele>
        <time>2022-09-21T13:18:48Z</time>
      </trkpt>
      <trkpt lat="50.25018" lon="2.21011">
        <ele>82.81</ele>
        <time>2022-09-21T13:19:12Z</time>
      </trkpt>
      <trkpt lat="50.25018" lon="2.21011">
        <ele>82.81</ele>
        <time>2022-09-21T13:19:25Z</time>
      </trkpt>
      <trkpt lat="50.25018" lon="2.2101">
        <ele>83.77</ele>
        <time>2022-09-21T13:19:45Z</time>
      </trkpt>
      <trkpt lat="50.25016" lon="2.21008">
        <ele>85.21</ele>
        <time>2022-09-21T13:20:01Z</time>
      </trkpt>
      <trkpt lat="50.25006" lon="2.20983">
        <ele>85.21</ele>
        <time>2022-09-21T13:20:16Z</time>
      </trkpt>
      <trkpt lat="50.24995" lon="2.20953">
        <ele>84.73</ele>
        <time>2022-09-21T13:20:31Z</time>
      </trkpt>
      <trkpt lat="50.24983" lon="2.20929">
        <ele>84.25</ele>
        <time>2022-09-21T13:20:46Z</time>
      </trkpt>
      <trkpt lat="50.24967" lon="2.20905">
        <ele>85.21</ele>
        <time>2022-09-21T13:21:02Z</time>
      </trkpt>
      <trkpt lat="50.24954" lon="2.20873">
        <ele>84.25</ele>
        <time>2022-09-21T13:21:19Z</time>
      </trkpt>
      <trkpt lat="50.24946" lon="2.20846">
        <ele>84.25</ele>
        <time>2022-09-21T13:21:33Z</time>
      </trkpt>
      <trkpt lat="50.24936" lon="2.20809">
        <ele>85.21</ele>
        <time>2022-09-21T13:21:51Z</time>
      </trkpt>
      <trkpt lat="50.24928" lon="2.20781">
        <ele>83.29</ele>
        <time>2022-09-21T13:22:06Z</time>
      </trkpt>
      <trkpt lat="50.24918" lon="2.20751">
        <ele>81.37</ele>
        <time>2022-09-21T13:22:22Z</time>
      </trkpt>
      <trkpt lat="50.24905" lon="2.20721">
        <ele>81.85</ele>
        <time>2022-09-21T13:22:37Z</time>
      </trkpt>
      <trkpt lat="50.24895" lon="2.20704">
        <ele>81.85</ele>
        <time>2022-09-21T13:22:50Z</time>
      </trkpt>
      <trkpt lat="50.24886" lon="2.20684">
        <ele>78.97</ele>
        <time>2022-09-21T13:23:04Z</time>
      </trkpt>
      <trkpt lat="50.24877" lon="2.20657">
        <ele>78</ele>
        <time>2022-09-21T13:23:19Z</time>
      </trkpt>
      <trkpt lat="50.24865" lon="2.2062">
        <ele>78.48</ele>
        <time>2022-09-21T13:23:36Z</time>
      </trkpt>
      <trkpt lat="50.24858" lon="2.20597">
        <ele>78.48</ele>
        <time>2022-09-21T13:23:49Z</time>
      </trkpt>
      <trkpt lat="50.24849" lon="2.20573">
        <ele>77.04</ele>
        <time>2022-09-21T13:24:02Z</time>
      </trkpt>
      <trkpt lat="50.24842" lon="2.20554">
        <ele>74.64</ele>
        <time>2022-09-21T13:24:14Z</time>
      </trkpt>
      <trkpt lat="50.24831" lon="2.20527">
        <ele>73.68</ele>
        <time>2022-09-21T13:24:29Z</time>
      </trkpt>
      <trkpt lat="50.24817" lon="2.20504">
        <ele>74.64</ele>
        <time>2022-09-21T13:24:43Z</time>
      </trkpt>
      <trkpt lat="50.248" lon="2.20477">
        <ele>76.08</ele>
        <time>2022-09-21T13:25:00Z</time>
      </trkpt>
      <trkpt lat="50.24788" lon="2.20454">
        <ele>78.97</ele>
        <time>2022-09-21T13:25:14Z</time>
      </trkpt>
      <trkpt lat="50.24776" lon="2.2043">
        <ele>76.56</ele>
        <time>2022-09-21T13:25:27Z</time>
      </trkpt>
      <trkpt lat="50.24762" lon="2.204">
        <ele>77.52</ele>
        <time>2022-09-21T13:25:44Z</time>
      </trkpt>
      <trkpt lat="50.24753" lon="2.20371">
        <ele>78.48</ele>
        <time>2022-09-21T13:25:59Z</time>
      </trkpt>
      <trkpt lat="50.24745" lon="2.20341">
        <ele>78</ele>
        <time>2022-09-21T13:26:15Z</time>
      </trkpt>
      <trkpt lat="50.24734" lon="2.20311">
        <ele>77.52</ele>
        <time>2022-09-21T13:26:32Z</time>
      </trkpt>
      <trkpt lat="50.24722" lon="2.20285">
        <ele>77.52</ele>
        <time>2022-09-21T13:26:47Z</time>
      </trkpt>
      <trkpt lat="50.24708" lon="2.20256">
        <ele>77.04</ele>
        <time>2022-09-21T13:27:03Z</time>
      </trkpt>
      <trkpt lat="50.247" lon="2.2023">
        <ele>76.08</ele>
        <time>2022-09-21T13:27:18Z</time>
      </trkpt>
      <trkpt lat="50.24692" lon="2.20203">
        <ele>76.08</ele>
        <time>2022-09-21T13:27:32Z</time>
      </trkpt>
      <trkpt lat="50.24682" lon="2.20171">
        <ele>76.08</ele>
        <time>2022-09-21T13:27:48Z</time>
      </trkpt>
      <trkpt lat="50.24677" lon="2.20141">
        <ele>76.08</ele>
        <time>2022-09-21T13:28:03Z</time>
      </trkpt>
      <trkpt lat="50.24677" lon="2.20139">
        <ele>76.08</ele>
        <time>2022-09-21T13:28:04Z</time>
      </trkpt>
      <trkpt lat="50.2469" lon="2.20119">
        <ele>73.68</ele>
        <time>2022-09-21T13:28:18Z</time>
      </trkpt>
      <trkpt lat="50.24701" lon="2.201">
        <ele>74.16</ele>
        <time>2022-09-21T13:28:31Z</time>
      </trkpt>
      <trkpt lat="50.2471" lon="2.20087">
        <ele>76.56</ele>
        <time>2022-09-21T13:28:43Z</time>
      </trkpt>
      <trkpt lat="50.24716" lon="2.20076">
        <ele>78</ele>
        <time>2022-09-21T13:28:56Z</time>
      </trkpt>
      <trkpt lat="50.24719" lon="2.20072">
        <ele>78.97</ele>
        <time>2022-09-21T13:29:07Z</time>
      </trkpt>
      <trkpt lat="50.2472" lon="2.20071">
        <ele>79.45</ele>
        <time>2022-09-21T13:29:23Z</time>
      </trkpt>
      <trkpt lat="50.24722" lon="2.20071">
        <ele>79.93</ele>
        <time>2022-09-21T13:29:33Z</time>
      </trkpt>
      <trkpt lat="50.24728" lon="2.20069">
        <ele>80.41</ele>
        <time>2022-09-21T13:29:44Z</time>
      </trkpt>
      <trkpt lat="50.24731" lon="2.20065">
        <ele>82.81</ele>
        <time>2022-09-21T13:29:55Z</time>
      </trkpt>
      <trkpt lat="50.24729" lon="2.20059">
        <ele>84.73</ele>
        <time>2022-09-21T13:30:06Z</time>
      </trkpt>
      <trkpt lat="50.24725" lon="2.20054">
        <ele>86.66</ele>
        <time>2022-09-21T13:30:19Z</time>
      </trkpt>
      <trkpt lat="50.24724" lon="2.20052">
        <ele>87.14</ele>
        <time>2022-09-21T13:30:33Z</time>
      </trkpt>
      <trkpt lat="50.24717" lon="2.20034">
        <ele>87.14</ele>
        <time>2022-09-21T13:30:47Z</time>
      </trkpt>
      <trkpt lat="50.24716" lon="2.20029">
        <ele>87.62</ele>
        <time>2022-09-21T13:30:51Z</time>
      </trkpt>
      <trkpt lat="50.24705" lon="2.20014">
        <ele>86.18</ele>
        <time>2022-09-21T13:31:05Z</time>
      </trkpt>
      <trkpt lat="50.24698" lon="2.20001">
        <ele>84.25</ele>
        <time>2022-09-21T13:31:18Z</time>
      </trkpt>
      <trkpt lat="50.24695" lon="2.19993">
        <ele>84.25</ele>
        <time>2022-09-21T13:31:25Z</time>
      </trkpt>
      <trkpt lat="50.24686" lon="2.19975">
        <ele>84.25</ele>
        <time>2022-09-21T13:31:38Z</time>
      </trkpt>
      <trkpt lat="50.24676" lon="2.19964">
        <ele>82.81</ele>
        <time>2022-09-21T13:31:52Z</time>
      </trkpt>
      <trkpt lat="50.24663" lon="2.19951">
        <ele>82.81</ele>
        <time>2022-09-21T13:32:04Z</time>
      </trkpt>
      <trkpt lat="50.24657" lon="2.1995">
        <ele>81.37</ele>
        <time>2022-09-21T13:32:10Z</time>
      </trkpt>
      <trkpt lat="50.24654" lon="2.19947">
        <ele>81.37</ele>
        <time>2022-09-21T13:32:14Z</time>
      </trkpt>
      <trkpt lat="50.24647" lon="2.19939">
        <ele>82.33</ele>
        <time>2022-09-21T13:32:27Z</time>
      </trkpt>
      <trkpt lat="50.24637" lon="2.1993">
        <ele>82.81</ele>
        <time>2022-09-21T13:32:39Z</time>
      </trkpt>
      <trkpt lat="50.24629" lon="2.19916">
        <ele>84.73</ele>
        <time>2022-09-21T13:32:52Z</time>
      </trkpt>
      <trkpt lat="50.24624" lon="2.19908">
        <ele>85.21</ele>
        <time>2022-09-21T13:33:04Z</time>
      </trkpt>
      <trkpt lat="50.24623" lon="2.19906">
        <ele>84.25</ele>
        <time>2022-09-21T13:33:17Z</time>
      </trkpt>
      <trkpt lat="50.24622" lon="2.19903">
        <ele>83.77</ele>
        <time>2022-09-21T13:33:29Z</time>
      </trkpt>
      <trkpt lat="50.24621" lon="2.199">
        <ele>83.29</ele>
        <time>2022-09-21T13:33:48Z</time>
      </trkpt>
      <trkpt lat="50.2462" lon="2.19896">
        <ele>82.33</ele>
        <time>2022-09-21T13:34:01Z</time>
      </trkpt>
      <trkpt lat="50.24618" lon="2.19888">
        <ele>82.81</ele>
        <time>2022-09-21T13:34:13Z</time>
      </trkpt>
      <trkpt lat="50.24616" lon="2.1988">
        <ele>80.89</ele>
        <time>2022-09-21T13:34:25Z</time>
      </trkpt>
      <trkpt lat="50.24614" lon="2.19877">
        <ele>81.37</ele>
        <time>2022-09-21T13:34:54Z</time>
      </trkpt>
      <trkpt lat="50.24614" lon="2.19875">
        <ele>81.85</ele>
        <time>2022-09-21T13:35:21Z</time>
      </trkpt>
      <trkpt lat="50.24613" lon="2.19874">
        <ele>81.85</ele>
        <time>2022-09-21T13:35:47Z</time>
      </trkpt>
      <trkpt lat="50.24613" lon="2.19872">
        <ele>82.33</ele>
        <time>2022-09-21T13:36:08Z</time>
      </trkpt>
      <trkpt lat="50.24612" lon="2.19872">
        <ele>81.37</ele>
        <time>2022-09-21T13:36:29Z</time>
      </trkpt>
      <trkpt lat="50.24612" lon="2.19871">
        <ele>81.85</ele>
        <time>2022-09-21T13:36:43Z</time>
      </trkpt>
      <trkpt lat="50.24608" lon="2.19862">
        <ele>80.41</ele>
        <time>2022-09-21T13:36:56Z</time>
      </trkpt>
      <trkpt lat="50.24603" lon="2.19846">
        <ele>79.45</ele>
        <time>2022-09-21T13:37:08Z</time>
      </trkpt>
      <trkpt lat="50.24598" lon="2.19836">
        <ele>79.45</ele>
        <time>2022-09-21T13:37:20Z</time>
      </trkpt>
      <trkpt lat="50.24594" lon="2.19829">
        <ele>78.97</ele>
        <time>2022-09-21T13:37:32Z</time>
      </trkpt>
      <trkpt lat="50.24593" lon="2.19827">
        <ele>78</ele>
        <time>2022-09-21T13:37:44Z</time>
      </trkpt>
      <trkpt lat="50.24594" lon="2.19825">
        <ele>77.04</ele>
        <time>2022-09-21T13:38:01Z</time>
      </trkpt>
      <trkpt lat="50.24592" lon="2.19822">
        <ele>76.08</ele>
        <time>2022-09-21T13:38:17Z</time>
      </trkpt>
      <trkpt lat="50.24591" lon="2.1982">
        <ele>75.6</ele>
        <time>2022-09-21T13:38:36Z</time>
      </trkpt>
      <trkpt lat="50.24591" lon="2.19817">
        <ele>76.08</ele>
        <time>2022-09-21T13:38:49Z</time>
      </trkpt>
      <trkpt lat="50.24592" lon="2.19815">
        <ele>76.56</ele>
        <time>2022-09-21T13:39:07Z</time>
      </trkpt>
      <trkpt lat="50.24592" lon="2.19812">
        <ele>77.04</ele>
        <time>2022-09-21T13:39:22Z</time>
      </trkpt>
      <trkpt lat="50.24593" lon="2.19811">
        <ele>77.52</ele>
        <time>2022-09-21T13:39:34Z</time>
      </trkpt>
      <trkpt lat="50.24595" lon="2.19809">
        <ele>78.97</ele>
        <time>2022-09-21T13:39:46Z</time>
      </trkpt>
      <trkpt lat="50.24596" lon="2.19807">
        <ele>79.93</ele>
        <time>2022-09-21T13:40:01Z</time>
      </trkpt>
      <trkpt lat="50.24597" lon="2.19805">
        <ele>80.41</ele>
        <time>2022-09-21T13:40:13Z</time>
      </trkpt>
      <trkpt lat="50.24598" lon="2.19804">
        <ele>81.37</ele>
        <time>2022-09-21T13:40:26Z</time>
      </trkpt>
      <trkpt lat="50.24599" lon="2.19803">
        <ele>81.85</ele>
        <time>2022-09-21T13:40:41Z</time>
      </trkpt>
      <trkpt lat="50.24599" lon="2.19802">
        <ele>82.33</ele>
        <time>2022-09-21T13:40:56Z</time>
      </trkpt>
      <trkpt lat="50.246" lon="2.19802">
        <ele>82.81</ele>
        <time>2022-09-21T13:41:10Z</time>
      </trkpt>
      <trkpt lat="50.24601" lon="2.19801">
        <ele>83.77</ele>
        <time>2022-09-21T13:41:28Z</time>
      </trkpt>
      <trkpt lat="50.24601" lon="2.198">
        <ele>83.77</ele>
        <time>2022-09-21T13:41:43Z</time>
      </trkpt>
      <trkpt lat="50.24601" lon="2.19797">
        <ele>83.77</ele>
        <time>2022-09-21T13:41:57Z</time>
      </trkpt>
      <trkpt lat="50.246" lon="2.19796">
        <ele>84.25</ele>
        <time>2022-09-21T13:42:17Z</time>
      </trkpt>
      <trkpt lat="50.246" lon="2.19794">
        <ele>85.21</ele>
        <time>2022-09-21T13:42:39Z</time>
      </trkpt>
      <trkpt lat="50.24599" lon="2.19794">
        <ele>85.69</ele>
        <time>2022-09-21T13:42:55Z</time>
      </trkpt>
      <trkpt lat="50.246" lon="2.19793">
        <ele>86.66</ele>
        <time>2022-09-21T13:43:23Z</time>
      </trkpt>
      <trkpt lat="50.246" lon="2.19793">
        <ele>87.14</ele>
        <time>2022-09-21T13:43:41Z</time>
      </trkpt>
      <trkpt lat="50.24599" lon="2.19794">
        <ele>87.62</ele>
        <time>2022-09-21T13:44:06Z</time>
      </trkpt>
      <trkpt lat="50.24597" lon="2.19792">
        <ele>87.14</ele>
        <time>2022-09-21T13:44:24Z</time>
      </trkpt>
      <trkpt lat="50.24596" lon="2.1979">
        <ele>86.66</ele>
        <time>2022-09-21T13:44:37Z</time>
      </trkpt>
      <trkpt lat="50.24595" lon="2.19782">
        <ele>87.14</ele>
        <time>2022-09-21T13:44:52Z</time>
      </trkpt>
      <trkpt lat="50.24593" lon="2.19767">
        <ele>89.06</ele>
        <time>2022-09-21T13:45:04Z</time>
      </trkpt>
      <trkpt lat="50.24592" lon="2.19755">
        <ele>89.54</ele>
        <time>2022-09-21T13:45:15Z</time>
      </trkpt>
      <trkpt lat="50.24593" lon="2.19748">
        <ele>90.98</ele>
        <time>2022-09-21T13:45:28Z</time>
      </trkpt>
      <trkpt lat="50.24593" lon="2.19739">
        <ele>92.9</ele>
        <time>2022-09-21T13:45:38Z</time>
      </trkpt>
      <trkpt lat="50.24592" lon="2.19735">
        <ele>93.87</ele>
        <time>2022-09-21T13:45:53Z</time>
      </trkpt>
      <trkpt lat="50.24594" lon="2.19727">
        <ele>96.75</ele>
        <time>2022-09-21T13:46:07Z</time>
      </trkpt>
      <trkpt lat="50.24595" lon="2.19716">
        <ele>98.19</ele>
        <time>2022-09-21T13:46:19Z</time>
      </trkpt>
      <trkpt lat="50.24596" lon="2.19713">
        <ele>99.63</ele>
        <time>2022-09-21T13:46:35Z</time>
      </trkpt>
      <trkpt lat="50.24596" lon="2.1971">
        <ele>98.67</ele>
        <time>2022-09-21T13:46:50Z</time>
      </trkpt>
      <trkpt lat="50.24595" lon="2.19708">
        <ele>97.23</ele>
        <time>2022-09-21T13:47:14Z</time>
      </trkpt>
      <trkpt lat="50.24596" lon="2.19704">
        <ele>96.75</ele>
        <time>2022-09-21T13:47:28Z</time>
      </trkpt>
      <trkpt lat="50.24596" lon="2.19701">
        <ele>97.23</ele>
        <time>2022-09-21T13:47:40Z</time>
      </trkpt>
      <trkpt lat="50.24596" lon="2.197">
        <ele>97.23</ele>
        <time>2022-09-21T13:47:53Z</time>
      </trkpt>
      <trkpt lat="50.24596" lon="2.19699">
        <ele>96.75</ele>
        <time>2022-09-21T13:48:07Z</time>
      </trkpt>
      <trkpt lat="50.24596" lon="2.19697">
        <ele>97.23</ele>
        <time>2022-09-21T13:48:18Z</time>
      </trkpt>
      <trkpt lat="50.24596" lon="2.19694">
        <ele>97.23</ele>
        <time>2022-09-21T13:48:29Z</time>
      </trkpt>
      <trkpt lat="50.246" lon="2.19681">
        <ele>98.67</ele>
        <time>2022-09-21T13:48:38Z</time>
      </trkpt>
      <trkpt lat="50.24601" lon="2.19665">
        <ele>98.67</ele>
        <time>2022-09-21T13:48:51Z</time>
      </trkpt>
      <trkpt lat="50.24601" lon="2.1966">
        <ele>98.19</ele>
        <time>2022-09-21T13:49:06Z</time>
      </trkpt>
      <trkpt lat="50.246" lon="2.19655">
        <ele>98.67</ele>
        <time>2022-09-21T13:49:20Z</time>
      </trkpt>
      <trkpt lat="50.246" lon="2.19648">
        <ele>98.19</ele>
        <time>2022-09-21T13:49:34Z</time>
      </trkpt>
      <trkpt lat="50.24598" lon="2.19639">
        <ele>97.23</ele>
        <time>2022-09-21T13:49:50Z</time>
      </trkpt>
      <trkpt lat="50.24596" lon="2.19632">
        <ele>97.71</ele>
        <time>2022-09-21T13:50:04Z</time>
      </trkpt>
      <trkpt lat="50.24595" lon="2.19629">
        <ele>96.75</ele>
        <time>2022-09-21T13:50:20Z</time>
      </trkpt>
      <trkpt lat="50.24593" lon="2.19624">
        <ele>96.75</ele>
        <time>2022-09-21T13:50:36Z</time>
      </trkpt>
      <trkpt lat="50.24592" lon="2.19621">
        <ele>96.27</ele>
        <time>2022-09-21T13:50:49Z</time>
      </trkpt>
      <trkpt lat="50.24591" lon="2.19619">
        <ele>95.79</ele>
        <time>2022-09-21T13:51:03Z</time>
      </trkpt>
      <trkpt lat="50.2459" lon="2.19613">
        <ele>95.31</ele>
        <time>2022-09-21T13:51:14Z</time>
      </trkpt>
      <trkpt lat="50.24589" lon="2.19611">
        <ele>95.31</ele>
        <time>2022-09-21T13:51:24Z</time>
      </trkpt>
      <trkpt lat="50.24587" lon="2.19608">
        <ele>94.35</ele>
        <time>2022-09-21T13:51:38Z</time>
      </trkpt>
      <trkpt lat="50.24586" lon="2.19604">
        <ele>94.83</ele>
        <time>2022-09-21T13:51:53Z</time>
      </trkpt>
      <trkpt lat="50.24585" lon="2.19603">
        <ele>94.83</ele>
        <time>2022-09-21T13:52:12Z</time>
      </trkpt>
      <trkpt lat="50.24584" lon="2.19602">
        <ele>93.39</ele>
        <time>2022-09-21T13:52:35Z</time>
      </trkpt>
      <trkpt lat="50.24585" lon="2.19601">
        <ele>93.87</ele>
        <time>2022-09-21T13:52:51Z</time>
      </trkpt>
      <trkpt lat="50.24585" lon="2.19599">
        <ele>93.39</ele>
        <time>2022-09-21T13:53:03Z</time>
      </trkpt>
      <trkpt lat="50.24584" lon="2.19598">
        <ele>91.94</ele>
        <time>2022-09-21T13:53:17Z</time>
      </trkpt>
      <trkpt lat="50.24583" lon="2.19596">
        <ele>90.98</ele>
        <time>2022-09-21T13:53:31Z</time>
      </trkpt>
      <trkpt lat="50.24582" lon="2.19595">
        <ele>90.5</ele>
        <time>2022-09-21T13:53:45Z</time>
      </trkpt>
      <trkpt lat="50.24581" lon="2.19593">
        <ele>89.06</ele>
        <time>2022-09-21T13:54:01Z</time>
      </trkpt>
      <trkpt lat="50.24579" lon="2.19592">
        <ele>88.58</ele>
        <time>2022-09-21T13:54:16Z</time>
      </trkpt>
      <trkpt lat="50.24577" lon="2.1959">
        <ele>87.62</ele>
        <time>2022-09-21T13:54:31Z</time>
      </trkpt>
      <trkpt lat="50.24576" lon="2.19589">
        <ele>86.66</ele>
        <time>2022-09-21T13:54:43Z</time>
      </trkpt>
      <trkpt lat="50.24575" lon="2.19588">
        <ele>86.18</ele>
        <time>2022-09-21T13:54:57Z</time>
      </trkpt>
      <trkpt lat="50.24574" lon="2.19586">
        <ele>85.21</ele>
        <time>2022-09-21T13:55:13Z</time>
      </trkpt>
      <trkpt lat="50.24571" lon="2.19583">
        <ele>83.77</ele>
        <time>2022-09-21T13:55:26Z</time>
      </trkpt>
      <trkpt lat="50.24563" lon="2.19573">
        <ele>82.81</ele>
        <time>2022-09-21T13:55:35Z</time>
      </trkpt>
      <trkpt lat="50.2456" lon="2.19567">
        <ele>82.33</ele>
        <time>2022-09-21T13:55:40Z</time>
      </trkpt>
      <trkpt lat="50.2455" lon="2.19548">
        <ele>81.85</ele>
        <time>2022-09-21T13:55:54Z</time>
      </trkpt>
      <trkpt lat="50.24544" lon="2.19533">
        <ele>82.33</ele>
        <time>2022-09-21T13:56:05Z</time>
      </trkpt>
      <trkpt lat="50.24537" lon="2.19517">
        <ele>81.37</ele>
        <time>2022-09-21T13:56:17Z</time>
      </trkpt>
      <trkpt lat="50.24533" lon="2.19499">
        <ele>81.37</ele>
        <time>2022-09-21T13:56:30Z</time>
      </trkpt>
      <trkpt lat="50.24527" lon="2.19482">
        <ele>82.33</ele>
        <time>2022-09-21T13:56:43Z</time>
      </trkpt>
      <trkpt lat="50.24522" lon="2.19468">
        <ele>80.89</ele>
        <time>2022-09-21T13:56:56Z</time>
      </trkpt>
      <trkpt lat="50.24521" lon="2.19465">
        <ele>80.41</ele>
        <time>2022-09-21T13:57:04Z</time>
      </trkpt>
      <trkpt lat="50.24514" lon="2.19454">
        <ele>78.97</ele>
        <time>2022-09-21T13:57:18Z</time>
      </trkpt>
      <trkpt lat="50.24507" lon="2.19441">
        <ele>78.48</ele>
        <time>2022-09-21T13:57:32Z</time>
      </trkpt>
      <trkpt lat="50.245" lon="2.19432">
        <ele>79.93</ele>
        <time>2022-09-21T13:57:46Z</time>
      </trkpt>
      <trkpt lat="50.24493" lon="2.19421">
        <ele>78.97</ele>
        <time>2022-09-21T13:58:01Z</time>
      </trkpt>
      <trkpt lat="50.24489" lon="2.19414">
        <ele>76.56</ele>
        <time>2022-09-21T13:58:12Z</time>
      </trkpt>
      <trkpt lat="50.24486" lon="2.19401">
        <ele>76.08</ele>
        <time>2022-09-21T13:58:24Z</time>
      </trkpt>
      <trkpt lat="50.24482" lon="2.19388">
        <ele>77.52</ele>
        <time>2022-09-21T13:58:37Z</time>
      </trkpt>
      <trkpt lat="50.24477" lon="2.19376">
        <ele>78.48</ele>
        <time>2022-09-21T13:58:50Z</time>
      </trkpt>
      <trkpt lat="50.24476" lon="2.19364">
        <ele>78.97</ele>
        <time>2022-09-21T13:59:02Z</time>
      </trkpt>
      <trkpt lat="50.24474" lon="2.19352">
        <ele>79.93</ele>
        <time>2022-09-21T13:59:14Z</time>
      </trkpt>
      <trkpt lat="50.24475" lon="2.19341">
        <ele>81.85</ele>
        <time>2022-09-21T13:59:26Z</time>
      </trkpt>
      <trkpt lat="50.24475" lon="2.19332">
        <ele>82.81</ele>
        <time>2022-09-21T13:59:37Z</time>
      </trkpt>
      <trkpt lat="50.2447" lon="2.1932">
        <ele>83.29</ele>
        <time>2022-09-21T13:59:50Z</time>
      </trkpt>
      <trkpt lat="50.24467" lon="2.19313">
        <ele>81.37</ele>
        <time>2022-09-21T14:00:03Z</time>
      </trkpt>
      <trkpt lat="50.24463" lon="2.19305">
        <ele>79.45</ele>
        <time>2022-09-21T14:00:15Z</time>
      </trkpt>
      <trkpt lat="50.2446" lon="2.19298">
        <ele>78.48</ele>
        <time>2022-09-21T14:00:26Z</time>
      </trkpt>
      <trkpt lat="50.24454" lon="2.19287">
        <ele>75.12</ele>
        <time>2022-09-21T14:00:39Z</time>
      </trkpt>
      <trkpt lat="50.24449" lon="2.1927">
        <ele>74.64</ele>
        <time>2022-09-21T14:00:52Z</time>
      </trkpt>
      <trkpt lat="50.24443" lon="2.19252">
        <ele>76.08</ele>
        <time>2022-09-21T14:01:06Z</time>
      </trkpt>
      <trkpt lat="50.24441" lon="2.19248">
        <ele>76.08</ele>
        <time>2022-09-21T14:01:19Z</time>
      </trkpt>
      <trkpt lat="50.24438" lon="2.19239">
        <ele>76.56</ele>
        <time>2022-09-21T14:01:29Z</time>
      </trkpt>
      <trkpt lat="50.24434" lon="2.19228">
        <ele>76.56</ele>
        <time>2022-09-21T14:01:36Z</time>
      </trkpt>
      <trkpt lat="50.24426" lon="2.1921">
        <ele>77.04</ele>
        <time>2022-09-21T14:01:48Z</time>
      </trkpt>
      <trkpt lat="50.24419" lon="2.19189">
        <ele>77.52</ele>
        <time>2022-09-21T14:02:01Z</time>
      </trkpt>
      <trkpt lat="50.24412" lon="2.19166">
        <ele>76.08</ele>
        <time>2022-09-21T14:02:16Z</time>
      </trkpt>
      <trkpt lat="50.24405" lon="2.19147">
        <ele>78.48</ele>
        <time>2022-09-21T14:02:29Z</time>
      </trkpt>
      <trkpt lat="50.24404" lon="2.19144">
        <ele>78.48</ele>
        <time>2022-09-21T14:02:31Z</time>
      </trkpt>
      <trkpt lat="50.24397" lon="2.19118">
        <ele>78</ele>
        <time>2022-09-21T14:02:44Z</time>
      </trkpt>
      <trkpt lat="50.24387" lon="2.191">
        <ele>78</ele>
        <time>2022-09-21T14:02:56Z</time>
      </trkpt>
      <trkpt lat="50.24386" lon="2.19096">
        <ele>78</ele>
        <time>2022-09-21T14:02:58Z</time>
      </trkpt>
      <trkpt lat="50.24383" lon="2.19077">
        <ele>78.48</ele>
        <time>2022-09-21T14:03:08Z</time>
      </trkpt>
      <trkpt lat="50.24377" lon="2.1906">
        <ele>79.93</ele>
        <time>2022-09-21T14:03:20Z</time>
      </trkpt>
      <trkpt lat="50.24374" lon="2.19051">
        <ele>79.93</ele>
        <time>2022-09-21T14:03:26Z</time>
      </trkpt>
      <trkpt lat="50.24373" lon="2.19043">
        <ele>80.41</ele>
        <time>2022-09-21T14:03:31Z</time>
      </trkpt>
      <trkpt lat="50.24373" lon="2.19039">
        <ele>80.89</ele>
        <time>2022-09-21T14:03:33Z</time>
      </trkpt>
      <trkpt lat="50.24371" lon="2.19025">
        <ele>80.89</ele>
        <time>2022-09-21T14:03:41Z</time>
      </trkpt>
      <trkpt lat="50.24373" lon="2.19005">
        <ele>80.41</ele>
        <time>2022-09-21T14:03:53Z</time>
      </trkpt>
      <trkpt lat="50.24377" lon="2.18982">
        <ele>77.52</ele>
        <time>2022-09-21T14:04:06Z</time>
      </trkpt>
      <trkpt lat="50.2438" lon="2.18974">
        <ele>76.56</ele>
        <time>2022-09-21T14:04:11Z</time>
      </trkpt>
      <trkpt lat="50.24382" lon="2.18967">
        <ele>76.08</ele>
        <time>2022-09-21T14:04:15Z</time>
      </trkpt>
      <trkpt lat="50.2439" lon="2.18955">
        <ele>74.64</ele>
        <time>2022-09-21T14:04:26Z</time>
      </trkpt>
      <trkpt lat="50.24391" lon="2.18953">
        <ele>74.64</ele>
        <time>2022-09-21T14:04:28Z</time>
      </trkpt>
      <trkpt lat="50.24398" lon="2.18938">
        <ele>73.68</ele>
        <time>2022-09-21T14:04:39Z</time>
      </trkpt>
      <trkpt lat="50.24404" lon="2.1892">
        <ele>73.68</ele>
        <time>2022-09-21T14:04:52Z</time>
      </trkpt>
      <trkpt lat="50.24407" lon="2.18901">
        <ele>72.24</ele>
        <time>2022-09-21T14:05:04Z</time>
      </trkpt>
      <trkpt lat="50.24413" lon="2.1888">
        <ele>71.27</ele>
        <time>2022-09-21T14:05:17Z</time>
      </trkpt>
      <trkpt lat="50.24417" lon="2.18873">
        <ele>70.31</ele>
        <time>2022-09-21T14:05:22Z</time>
      </trkpt>
      <trkpt lat="50.24422" lon="2.18858">
        <ele>69.35</ele>
        <time>2022-09-21T14:05:33Z</time>
      </trkpt>
      <trkpt lat="50.24424" lon="2.18847">
        <ele>68.87</ele>
        <time>2022-09-21T14:05:40Z</time>
      </trkpt>
      <trkpt lat="50.24422" lon="2.18834">
        <ele>68.39</ele>
        <time>2022-09-21T14:05:54Z</time>
      </trkpt>
      <trkpt lat="50.24423" lon="2.18827">
        <ele>67.43</ele>
        <time>2022-09-21T14:06:11Z</time>
      </trkpt>
      <trkpt lat="50.24423" lon="2.18823">
        <ele>68.39</ele>
        <time>2022-09-21T14:06:25Z</time>
      </trkpt>
      <trkpt lat="50.24427" lon="2.18815">
        <ele>67.91</ele>
        <time>2022-09-21T14:06:41Z</time>
      </trkpt>
      <trkpt lat="50.24427" lon="2.18813">
        <ele>68.39</ele>
        <time>2022-09-21T14:06:57Z</time>
      </trkpt>
      <trkpt lat="50.24427" lon="2.18812">
        <ele>68.87</ele>
        <time>2022-09-21T14:07:15Z</time>
      </trkpt>
      <trkpt lat="50.24426" lon="2.18808">
        <ele>68.87</ele>
        <time>2022-09-21T14:07:26Z</time>
      </trkpt>
      <trkpt lat="50.24426" lon="2.18804">
        <ele>68.39</ele>
        <time>2022-09-21T14:07:40Z</time>
      </trkpt>
      <trkpt lat="50.24424" lon="2.188">
        <ele>67.91</ele>
        <time>2022-09-21T14:07:52Z</time>
      </trkpt>
      <trkpt lat="50.24419" lon="2.18792">
        <ele>66.95</ele>
        <time>2022-09-21T14:07:56Z</time>
      </trkpt>
      <trkpt lat="50.24414" lon="2.18783">
        <ele>65.03</ele>
        <time>2022-09-21T14:08:02Z</time>
      </trkpt>
      <trkpt lat="50.24409" lon="2.18769">
        <ele>62.62</ele>
        <time>2022-09-21T14:08:10Z</time>
      </trkpt>
      <trkpt lat="50.24409" lon="2.18765">
        <ele>62.14</ele>
        <time>2022-09-21T14:08:12Z</time>
      </trkpt>
      <trkpt lat="50.24419" lon="2.18748">
        <ele>63.1</ele>
        <time>2022-09-21T14:08:24Z</time>
      </trkpt>
      <trkpt lat="50.24432" lon="2.18735">
        <ele>61.66</ele>
        <time>2022-09-21T14:08:39Z</time>
      </trkpt>
      <trkpt lat="50.24446" lon="2.18723">
        <ele>56.37</ele>
        <time>2022-09-21T14:08:55Z</time>
      </trkpt>
      <trkpt lat="50.2446" lon="2.1871">
        <ele>53.49</ele>
        <time>2022-09-21T14:09:09Z</time>
      </trkpt>
      <trkpt lat="50.24474" lon="2.187">
        <ele>56.37</ele>
        <time>2022-09-21T14:09:21Z</time>
      </trkpt>
      <trkpt lat="50.24487" lon="2.18684">
        <ele>64.55</ele>
        <time>2022-09-21T14:09:35Z</time>
      </trkpt>
      <trkpt lat="50.24498" lon="2.1867">
        <ele>63.58</ele>
        <time>2022-09-21T14:09:47Z</time>
      </trkpt>
      <trkpt lat="50.24507" lon="2.18654">
        <ele>57.82</ele>
        <time>2022-09-21T14:10:00Z</time>
      </trkpt>
      <trkpt lat="50.24519" lon="2.18638">
        <ele>55.41</ele>
        <time>2022-09-21T14:10:13Z</time>
      </trkpt>
      <trkpt lat="50.24527" lon="2.1862">
        <ele>56.86</ele>
        <time>2022-09-21T14:10:24Z</time>
      </trkpt>
      <trkpt lat="50.2453" lon="2.18603">
        <ele>53.49</ele>
        <time>2022-09-21T14:10:36Z</time>
      </trkpt>
      <trkpt lat="50.24538" lon="2.18583">
        <ele>49.16</ele>
        <time>2022-09-21T14:10:49Z</time>
      </trkpt>
      <trkpt lat="50.24541" lon="2.18571">
        <ele>49.65</ele>
        <time>2022-09-21T14:11:00Z</time>
      </trkpt>
      <trkpt lat="50.24546" lon="2.18554">
        <ele>49.65</ele>
        <time>2022-09-21T14:11:11Z</time>
      </trkpt>
      <trkpt lat="50.24551" lon="2.18536">
        <ele>49.65</ele>
        <time>2022-09-21T14:11:21Z</time>
      </trkpt>
      <trkpt lat="50.24555" lon="2.18513">
        <ele>59.26</ele>
        <time>2022-09-21T14:11:32Z</time>
      </trkpt>
      <trkpt lat="50.24562" lon="2.18491">
        <ele>66.47</ele>
        <time>2022-09-21T14:11:46Z</time>
      </trkpt>
      <trkpt lat="50.24571" lon="2.18478">
        <ele>68.87</ele>
        <time>2022-09-21T14:11:57Z</time>
      </trkpt>
      <trkpt lat="50.24578" lon="2.18466">
        <ele>73.68</ele>
        <time>2022-09-21T14:12:09Z</time>
      </trkpt>
      <trkpt lat="50.2458" lon="2.18452">
        <ele>76.08</ele>
        <time>2022-09-21T14:12:20Z</time>
      </trkpt>
      <trkpt lat="50.24592" lon="2.18425">
        <ele>78.48</ele>
        <time>2022-09-21T14:12:35Z</time>
      </trkpt>
      <trkpt lat="50.24594" lon="2.1841">
        <ele>77.52</ele>
        <time>2022-09-21T14:12:46Z</time>
      </trkpt>
      <trkpt lat="50.24595" lon="2.18399">
        <ele>79.45</ele>
        <time>2022-09-21T14:12:53Z</time>
      </trkpt>
      <trkpt lat="50.24598" lon="2.1838">
        <ele>80.41</ele>
        <time>2022-09-21T14:13:04Z</time>
      </trkpt>
      <trkpt lat="50.246" lon="2.18359">
        <ele>78.97</ele>
        <time>2022-09-21T14:13:16Z</time>
      </trkpt>
      <trkpt lat="50.24605" lon="2.18344">
        <ele>78</ele>
        <time>2022-09-21T14:13:27Z</time>
      </trkpt>
      <trkpt lat="50.24608" lon="2.18336">
        <ele>76.08</ele>
        <time>2022-09-21T14:13:34Z</time>
      </trkpt>
      <trkpt lat="50.24615" lon="2.18325">
        <ele>73.68</ele>
        <time>2022-09-21T14:13:44Z</time>
      </trkpt>
      <trkpt lat="50.24623" lon="2.18314">
        <ele>73.2</ele>
        <time>2022-09-21T14:13:55Z</time>
      </trkpt>
      <trkpt lat="50.24623" lon="2.18313">
        <ele>73.2</ele>
        <time>2022-09-21T14:13:56Z</time>
      </trkpt>
      <trkpt lat="50.24628" lon="2.18302">
        <ele>72.72</ele>
        <time>2022-09-21T14:14:07Z</time>
      </trkpt>
      <trkpt lat="50.24633" lon="2.18295">
        <ele>73.68</ele>
        <time>2022-09-21T14:14:17Z</time>
      </trkpt>
      <trkpt lat="50.24642" lon="2.1828">
        <ele>70.79</ele>
        <time>2022-09-21T14:14:32Z</time>
      </trkpt>
      <trkpt lat="50.24655" lon="2.1826">
        <ele>80.89</ele>
        <time>2022-09-21T14:14:45Z</time>
      </trkpt>
      <trkpt lat="50.24661" lon="2.18245">
        <ele>82.81</ele>
        <time>2022-09-21T14:14:56Z</time>
      </trkpt>
      <trkpt lat="50.24667" lon="2.18235">
        <ele>80.89</ele>
        <time>2022-09-21T14:15:08Z</time>
      </trkpt>
      <trkpt lat="50.24674" lon="2.18225">
        <ele>80.41</ele>
        <time>2022-09-21T14:15:21Z</time>
      </trkpt>
      <trkpt lat="50.24676" lon="2.18213">
        <ele>80.41</ele>
        <time>2022-09-21T14:15:35Z</time>
      </trkpt>
      <trkpt lat="50.24685" lon="2.182">
        <ele>81.85</ele>
        <time>2022-09-21T14:15:49Z</time>
      </trkpt>
      <trkpt lat="50.24691" lon="2.18195">
        <ele>83.77</ele>
        <time>2022-09-21T14:16:01Z</time>
      </trkpt>
      <trkpt lat="50.24696" lon="2.18181">
        <ele>87.14</ele>
        <time>2022-09-21T14:16:13Z</time>
      </trkpt>
      <trkpt lat="50.24702" lon="2.18166">
        <ele>89.54</ele>
        <time>2022-09-21T14:16:24Z</time>
      </trkpt>
      <trkpt lat="50.24709" lon="2.18144">
        <ele>90.5</ele>
        <time>2022-09-21T14:16:38Z</time>
      </trkpt>
      <trkpt lat="50.24715" lon="2.18132">
        <ele>93.39</ele>
        <time>2022-09-21T14:16:51Z</time>
      </trkpt>
      <trkpt lat="50.2472" lon="2.18123">
        <ele>93.39</ele>
        <time>2022-09-21T14:17:04Z</time>
      </trkpt>
      <trkpt lat="50.24726" lon="2.1811">
        <ele>95.31</ele>
        <time>2022-09-21T14:17:18Z</time>
      </trkpt>
      <trkpt lat="50.24731" lon="2.18099">
        <ele>96.75</ele>
        <time>2022-09-21T14:17:29Z</time>
      </trkpt>
      <trkpt lat="50.24734" lon="2.18094">
        <ele>98.67</ele>
        <time>2022-09-21T14:17:44Z</time>
      </trkpt>
      <trkpt lat="50.24735" lon="2.18088">
        <ele>101.56</ele>
        <time>2022-09-21T14:17:56Z</time>
      </trkpt>
      <trkpt lat="50.24741" lon="2.18078">
        <ele>101.56</ele>
        <time>2022-09-21T14:18:11Z</time>
      </trkpt>
      <trkpt lat="50.24749" lon="2.18061">
        <ele>108.77</ele>
        <time>2022-09-21T14:18:24Z</time>
      </trkpt>
      <trkpt lat="50.24753" lon="2.18051">
        <ele>109.25</ele>
        <time>2022-09-21T14:18:40Z</time>
      </trkpt>
      <trkpt lat="50.24754" lon="2.18037">
        <ele>112.61</ele>
        <time>2022-09-21T14:18:52Z</time>
      </trkpt>
      <trkpt lat="50.24755" lon="2.18032">
        <ele>110.69</ele>
        <time>2022-09-21T14:19:03Z</time>
      </trkpt>
      <trkpt lat="50.24757" lon="2.18022">
        <ele>105.4</ele>
        <time>2022-09-21T14:19:17Z</time>
      </trkpt>
      <trkpt lat="50.2476" lon="2.18011">
        <ele>105.88</ele>
        <time>2022-09-21T14:19:28Z</time>
      </trkpt>
      <trkpt lat="50.24762" lon="2.17997">
        <ele>106.84</ele>
        <time>2022-09-21T14:19:42Z</time>
      </trkpt>
      <trkpt lat="50.24765" lon="2.17988">
        <ele>107.81</ele>
        <time>2022-09-21T14:19:52Z</time>
      </trkpt>
      <trkpt lat="50.2477" lon="2.17976">
        <ele>107.81</ele>
        <time>2022-09-21T14:19:59Z</time>
      </trkpt>
      <trkpt lat="50.24776" lon="2.17953">
        <ele>111.17</ele>
        <time>2022-09-21T14:20:12Z</time>
      </trkpt>
      <trkpt lat="50.24779" lon="2.17938">
        <ele>112.61</ele>
        <time>2022-09-21T14:20:27Z</time>
      </trkpt>
      <trkpt lat="50.24781" lon="2.17927">
        <ele>110.21</ele>
        <time>2022-09-21T14:20:41Z</time>
      </trkpt>
      <trkpt lat="50.24785" lon="2.17919">
        <ele>107.81</ele>
        <time>2022-09-21T14:20:54Z</time>
      </trkpt>
      <trkpt lat="50.24788" lon="2.17913">
        <ele>113.57</ele>
        <time>2022-09-21T14:21:10Z</time>
      </trkpt>
      <trkpt lat="50.2479" lon="2.1791">
        <ele>116.46</ele>
        <time>2022-09-21T14:21:22Z</time>
      </trkpt>
      <trkpt lat="50.24793" lon="2.17907">
        <ele>117.9</ele>
        <time>2022-09-21T14:21:35Z</time>
      </trkpt>
      <trkpt lat="50.24798" lon="2.17902">
        <ele>120.78</ele>
        <time>2022-09-21T14:21:49Z</time>
      </trkpt>
      <trkpt lat="50.24799" lon="2.179">
        <ele>122.22</ele>
        <time>2022-09-21T14:22:06Z</time>
      </trkpt>
      <trkpt lat="50.24799" lon="2.17901">
        <ele>122.71</ele>
        <time>2022-09-21T14:22:22Z</time>
      </trkpt>
      <trkpt lat="50.24799" lon="2.179">
        <ele>122.71</ele>
        <time>2022-09-21T14:22:37Z</time>
      </trkpt>
      <trkpt lat="50.24794" lon="2.17891">
        <ele>123.19</ele>
        <time>2022-09-21T14:22:49Z</time>
      </trkpt>
      <trkpt lat="50.24787" lon="2.17882">
        <ele>123.67</ele>
        <time>2022-09-21T14:23:01Z</time>
      </trkpt>
      <trkpt lat="50.24784" lon="2.17878">
        <ele>123.67</ele>
        <time>2022-09-21T14:23:05Z</time>
      </trkpt>
      <trkpt lat="50.24772" lon="2.17883">
        <ele>124.15</ele>
        <time>2022-09-21T14:23:18Z</time>
      </trkpt>
      <trkpt lat="50.24761" lon="2.17893">
        <ele>123.19</ele>
        <time>2022-09-21T14:23:29Z</time>
      </trkpt>
      <trkpt lat="50.24753" lon="2.17897">
        <ele>122.71</ele>
        <time>2022-09-21T14:23:36Z</time>
      </trkpt>
      <trkpt lat="50.24751" lon="2.17899">
        <ele>122.71</ele>
        <time>2022-09-21T14:23:38Z</time>
      </trkpt>
      <trkpt lat="50.24735" lon="2.17905">
        <ele>124.15</ele>
        <time>2022-09-21T14:23:53Z</time>
      </trkpt>
      <trkpt lat="50.24717" lon="2.17913">
        <ele>125.59</ele>
        <time>2022-09-21T14:24:09Z</time>
      </trkpt>
      <trkpt lat="50.247" lon="2.1792">
        <ele>125.59</ele>
        <time>2022-09-21T14:24:24Z</time>
      </trkpt>
      <trkpt lat="50.24687" lon="2.17924">
        <ele>126.07</ele>
        <time>2022-09-21T14:24:37Z</time>
      </trkpt>
      <trkpt lat="50.24669" lon="2.1793">
        <ele>125.11</ele>
        <time>2022-09-21T14:24:52Z</time>
      </trkpt>
      <trkpt lat="50.24648" lon="2.17934">
        <ele>125.11</ele>
        <time>2022-09-21T14:25:10Z</time>
      </trkpt>
      <trkpt lat="50.24629" lon="2.17936">
        <ele>125.11</ele>
        <time>2022-09-21T14:25:27Z</time>
      </trkpt>
      <trkpt lat="50.24612" lon="2.17939">
        <ele>124.63</ele>
        <time>2022-09-21T14:25:42Z</time>
      </trkpt>
      <trkpt lat="50.24595" lon="2.17941">
        <ele>125.59</ele>
        <time>2022-09-21T14:25:56Z</time>
      </trkpt>
      <trkpt lat="50.24578" lon="2.17944">
        <ele>125.59</ele>
        <time>2022-09-21T14:26:12Z</time>
      </trkpt>
      <trkpt lat="50.2456" lon="2.1795">
        <ele>126.07</ele>
        <time>2022-09-21T14:26:28Z</time>
      </trkpt>
      <trkpt lat="50.24543" lon="2.17958">
        <ele>126.55</ele>
        <time>2022-09-21T14:26:44Z</time>
      </trkpt>
      <trkpt lat="50.2453" lon="2.17961">
        <ele>125.11</ele>
        <time>2022-09-21T14:26:55Z</time>
      </trkpt>
      <trkpt lat="50.24513" lon="2.17963">
        <ele>123.67</ele>
        <time>2022-09-21T14:27:10Z</time>
      </trkpt>
      <trkpt lat="50.24492" lon="2.17962">
        <ele>123.19</ele>
        <time>2022-09-21T14:27:27Z</time>
      </trkpt>
      <trkpt lat="50.24478" lon="2.17961">
        <ele>122.71</ele>
        <time>2022-09-21T14:27:40Z</time>
      </trkpt>
      <trkpt lat="50.24463" lon="2.17955">
        <ele>121.74</ele>
        <time>2022-09-21T14:27:53Z</time>
      </trkpt>
      <trkpt lat="50.2445" lon="2.17951">
        <ele>119.82</ele>
        <time>2022-09-21T14:28:05Z</time>
      </trkpt>
      <trkpt lat="50.24437" lon="2.17946">
        <ele>115.98</ele>
        <time>2022-09-21T14:28:17Z</time>
      </trkpt>
      <trkpt lat="50.24417" lon="2.17936">
        <ele>114.05</ele>
        <time>2022-09-21T14:28:34Z</time>
      </trkpt>
      <trkpt lat="50.24398" lon="2.17921">
        <ele>112.13</ele>
        <time>2022-09-21T14:28:51Z</time>
      </trkpt>
      <trkpt lat="50.24381" lon="2.17907">
        <ele>110.21</ele>
        <time>2022-09-21T14:29:07Z</time>
      </trkpt>
      <trkpt lat="50.24372" lon="2.17896">
        <ele>107.32</ele>
        <time>2022-09-21T14:29:19Z</time>
      </trkpt>
      <trkpt lat="50.24369" lon="2.17894">
        <ele>106.36</ele>
        <time>2022-09-21T14:29:22Z</time>
      </trkpt>
      <trkpt lat="50.24354" lon="2.17894">
        <ele>102.52</ele>
        <time>2022-09-21T14:29:37Z</time>
      </trkpt>
      <trkpt lat="50.24341" lon="2.17896">
        <ele>102.04</ele>
        <time>2022-09-21T14:29:48Z</time>
      </trkpt>
      <trkpt lat="50.24322" lon="2.17905">
        <ele>104.92</ele>
        <time>2022-09-21T14:30:02Z</time>
      </trkpt>
      <trkpt lat="50.24305" lon="2.17912">
        <ele>107.81</ele>
        <time>2022-09-21T14:30:16Z</time>
      </trkpt>
      <trkpt lat="50.24289" lon="2.17916">
        <ele>106.84</ele>
        <time>2022-09-21T14:30:29Z</time>
      </trkpt>
      <trkpt lat="50.24277" lon="2.17919">
        <ele>106.36</ele>
        <time>2022-09-21T14:30:39Z</time>
      </trkpt>
      <trkpt lat="50.2426" lon="2.1792">
        <ele>103.96</ele>
        <time>2022-09-21T14:30:54Z</time>
      </trkpt>
      <trkpt lat="50.24241" lon="2.17914">
        <ele>102.52</ele>
        <time>2022-09-21T14:31:09Z</time>
      </trkpt>
      <trkpt lat="50.24222" lon="2.17903">
        <ele>102.52</ele>
        <time>2022-09-21T14:31:24Z</time>
      </trkpt>
      <trkpt lat="50.24208" lon="2.17889">
        <ele>103</ele>
        <time>2022-09-21T14:31:37Z</time>
      </trkpt>
      <trkpt lat="50.24197" lon="2.17869">
        <ele>99.15</ele>
        <time>2022-09-21T14:31:52Z</time>
      </trkpt>
      <trkpt lat="50.24186" lon="2.17845">
        <ele>96.75</ele>
        <time>2022-09-21T14:32:06Z</time>
      </trkpt>
      <trkpt lat="50.2418" lon="2.17826">
        <ele>94.35</ele>
        <time>2022-09-21T14:32:18Z</time>
      </trkpt>
      <trkpt lat="50.24174" lon="2.17808">
        <ele>93.39</ele>
        <time>2022-09-21T14:32:30Z</time>
      </trkpt>
      <trkpt lat="50.24167" lon="2.17782">
        <ele>88.58</ele>
        <time>2022-09-21T14:32:45Z</time>
      </trkpt>
      <trkpt lat="50.24159" lon="2.17759">
        <ele>87.62</ele>
        <time>2022-09-21T14:32:59Z</time>
      </trkpt>
      <trkpt lat="50.24152" lon="2.17739">
        <ele>90.02</ele>
        <time>2022-09-21T14:33:11Z</time>
      </trkpt>
      <trkpt lat="50.24146" lon="2.17715">
        <ele>88.1</ele>
        <time>2022-09-21T14:33:25Z</time>
      </trkpt>
      <trkpt lat="50.24137" lon="2.17701">
        <ele>87.62</ele>
        <time>2022-09-21T14:33:36Z</time>
      </trkpt>
      <trkpt lat="50.24128" lon="2.17692">
        <ele>89.54</ele>
        <time>2022-09-21T14:33:43Z</time>
      </trkpt>
      <trkpt lat="50.24116" lon="2.17684">
        <ele>89.06</ele>
        <time>2022-09-21T14:33:57Z</time>
      </trkpt>
      <trkpt lat="50.24103" lon="2.17681">
        <ele>86.18</ele>
        <time>2022-09-21T14:34:10Z</time>
      </trkpt>
      <trkpt lat="50.24088" lon="2.17678">
        <ele>85.69</ele>
        <time>2022-09-21T14:34:22Z</time>
      </trkpt>
      <trkpt lat="50.24075" lon="2.17677">
        <ele>85.21</ele>
        <time>2022-09-21T14:34:35Z</time>
      </trkpt>
      <trkpt lat="50.24058" lon="2.17673">
        <ele>83.29</ele>
        <time>2022-09-21T14:34:50Z</time>
      </trkpt>
      <trkpt lat="50.24044" lon="2.1767">
        <ele>82.33</ele>
        <time>2022-09-21T14:35:03Z</time>
      </trkpt>
      <trkpt lat="50.2404" lon="2.17669">
        <ele>81.37</ele>
        <time>2022-09-21T14:35:09Z</time>
      </trkpt>
      <trkpt lat="50.24025" lon="2.17664">
        <ele>79.93</ele>
        <time>2022-09-21T14:35:22Z</time>
      </trkpt>
      <trkpt lat="50.24012" lon="2.17661">
        <ele>78.97</ele>
        <time>2022-09-21T14:35:33Z</time>
      </trkpt>
      <trkpt lat="50.23997" lon="2.17655">
        <ele>77.52</ele>
        <time>2022-09-21T14:35:46Z</time>
      </trkpt>
      <trkpt lat="50.23991" lon="2.1765">
        <ele>77.52</ele>
        <time>2022-09-21T14:35:52Z</time>
      </trkpt>
      <trkpt lat="50.23981" lon="2.17647">
        <ele>76.08</ele>
        <time>2022-09-21T14:36:07Z</time>
      </trkpt>
      <trkpt lat="50.23976" lon="2.17645">
        <ele>75.12</ele>
        <time>2022-09-21T14:36:18Z</time>
      </trkpt>
      <trkpt lat="50.23967" lon="2.17643">
        <ele>73.68</ele>
        <time>2022-09-21T14:36:27Z</time>
      </trkpt>
      <trkpt lat="50.23947" lon="2.17641">
        <ele>73.2</ele>
        <time>2022-09-21T14:36:43Z</time>
      </trkpt>
      <trkpt lat="50.23932" lon="2.17636">
        <ele>71.76</ele>
        <time>2022-09-21T14:36:56Z</time>
      </trkpt>
      <trkpt lat="50.23914" lon="2.17625">
        <ele>68.87</ele>
        <time>2022-09-21T14:37:11Z</time>
      </trkpt>
      <trkpt lat="50.23895" lon="2.17613">
        <ele>67.43</ele>
        <time>2022-09-21T14:37:26Z</time>
      </trkpt>
      <trkpt lat="50.2388" lon="2.17603">
        <ele>64.55</ele>
        <time>2022-09-21T14:37:39Z</time>
      </trkpt>
      <trkpt lat="50.23865" lon="2.17601">
        <ele>60.22</ele>
        <time>2022-09-21T14:37:53Z</time>
      </trkpt>
      <trkpt lat="50.23849" lon="2.17608">
        <ele>58.78</ele>
        <time>2022-09-21T14:38:06Z</time>
      </trkpt>
      <trkpt lat="50.23835" lon="2.1762">
        <ele>57.82</ele>
        <time>2022-09-21T14:38:20Z</time>
      </trkpt>
      <trkpt lat="50.23821" lon="2.17632">
        <ele>56.86</ele>
        <time>2022-09-21T14:38:32Z</time>
      </trkpt>
      <trkpt lat="50.23807" lon="2.17641">
        <ele>54.93</ele>
        <time>2022-09-21T14:38:43Z</time>
      </trkpt>
      <trkpt lat="50.23797" lon="2.17648">
        <ele>54.45</ele>
        <time>2022-09-21T14:38:56Z</time>
      </trkpt>
      <trkpt lat="50.23796" lon="2.17648">
        <ele>55.89</ele>
        <time>2022-09-21T14:39:08Z</time>
      </trkpt>
      <trkpt lat="50.23795" lon="2.17647">
        <ele>57.34</ele>
        <time>2022-09-21T14:39:26Z</time>
      </trkpt>
      <trkpt lat="50.23794" lon="2.17646">
        <ele>57.82</ele>
        <time>2022-09-21T14:39:39Z</time>
      </trkpt>
      <trkpt lat="50.23794" lon="2.17646">
        <ele>58.3</ele>
        <time>2022-09-21T14:39:55Z</time>
      </trkpt>
      <trkpt lat="50.23794" lon="2.17645">
        <ele>58.3</ele>
        <time>2022-09-21T14:40:16Z</time>
      </trkpt>
      <trkpt lat="50.23794" lon="2.17645">
        <ele>58.78</ele>
        <time>2022-09-21T14:40:34Z</time>
      </trkpt>
      <trkpt lat="50.23794" lon="2.17645">
        <ele>59.26</ele>
        <time>2022-09-21T14:40:51Z</time>
      </trkpt>
      <trkpt lat="50.23794" lon="2.17646">
        <ele>59.74</ele>
        <time>2022-09-21T14:41:15Z</time>
      </trkpt>
      <trkpt lat="50.23793" lon="2.17646">
        <ele>60.22</ele>
        <time>2022-09-21T14:41:32Z</time>
      </trkpt>
      <trkpt lat="50.23793" lon="2.17646">
        <ele>61.18</ele>
        <time>2022-09-21T14:41:49Z</time>
      </trkpt>
      <trkpt lat="50.23792" lon="2.17645">
        <ele>61.18</ele>
        <time>2022-09-21T14:42:01Z</time>
      </trkpt>
      <trkpt lat="50.23792" lon="2.17643">
        <ele>60.7</ele>
        <time>2022-09-21T14:42:13Z</time>
      </trkpt>
      <trkpt lat="50.23789" lon="2.17639">
        <ele>60.7</ele>
        <time>2022-09-21T14:42:21Z</time>
      </trkpt>
      <trkpt lat="50.23779" lon="2.17622">
        <ele>59.74</ele>
        <time>2022-09-21T14:42:34Z</time>
      </trkpt>
      <trkpt lat="50.2377" lon="2.17604">
        <ele>59.26</ele>
        <time>2022-09-21T14:42:46Z</time>
      </trkpt>
      <trkpt lat="50.23768" lon="2.17601">
        <ele>59.26</ele>
        <time>2022-09-21T14:42:48Z</time>
      </trkpt>
      <trkpt lat="50.23767" lon="2.17598">
        <ele>59.26</ele>
        <time>2022-09-21T14:42:50Z</time>
      </trkpt>
      <trkpt lat="50.23755" lon="2.17582">
        <ele>57.82</ele>
        <time>2022-09-21T14:43:03Z</time>
      </trkpt>
      <trkpt lat="50.23743" lon="2.17568">
        <ele>57.82</ele>
        <time>2022-09-21T14:43:15Z</time>
      </trkpt>
      <trkpt lat="50.23729" lon="2.17551">
        <ele>56.86</ele>
        <time>2022-09-21T14:43:28Z</time>
      </trkpt>
      <trkpt lat="50.23716" lon="2.17537">
        <ele>57.34</ele>
        <time>2022-09-21T14:43:41Z</time>
      </trkpt>
      <trkpt lat="50.23698" lon="2.17527">
        <ele>57.34</ele>
        <time>2022-09-21T14:43:56Z</time>
      </trkpt>
      <trkpt lat="50.2368" lon="2.17519">
        <ele>54.93</ele>
        <time>2022-09-21T14:44:11Z</time>
      </trkpt>
      <trkpt lat="50.23657" lon="2.17512">
        <ele>51.57</ele>
        <time>2022-09-21T14:44:28Z</time>
      </trkpt>
      <trkpt lat="50.23638" lon="2.17505">
        <ele>52.05</ele>
        <time>2022-09-21T14:44:44Z</time>
      </trkpt>
      <trkpt lat="50.23617" lon="2.17496">
        <ele>52.05</ele>
        <time>2022-09-21T14:45:01Z</time>
      </trkpt>
      <trkpt lat="50.23601" lon="2.17491">
        <ele>51.57</ele>
        <time>2022-09-21T14:45:16Z</time>
      </trkpt>
      <trkpt lat="50.23598" lon="2.1749">
        <ele>52.05</ele>
        <time>2022-09-21T14:45:29Z</time>
      </trkpt>
      <trkpt lat="50.23585" lon="2.17485">
        <ele>50.61</ele>
        <time>2022-09-21T14:45:43Z</time>
      </trkpt>
      <trkpt lat="50.23573" lon="2.17481">
        <ele>50.13</ele>
        <time>2022-09-21T14:45:55Z</time>
      </trkpt>
      <trkpt lat="50.23572" lon="2.1748">
        <ele>50.13</ele>
        <time>2022-09-21T14:45:56Z</time>
      </trkpt>
      <trkpt lat="50.23556" lon="2.1748">
        <ele>50.61</ele>
        <time>2022-09-21T14:46:11Z</time>
      </trkpt>
      <trkpt lat="50.23544" lon="2.17485">
        <ele>53.01</ele>
        <time>2022-09-21T14:46:22Z</time>
      </trkpt>
      <trkpt lat="50.23541" lon="2.17488">
        <ele>53.01</ele>
        <time>2022-09-21T14:46:26Z</time>
      </trkpt>
      <trkpt lat="50.23526" lon="2.17492">
        <ele>53.97</ele>
        <time>2022-09-21T14:46:41Z</time>
      </trkpt>
      <trkpt lat="50.23524" lon="2.17493">
        <ele>53.97</ele>
        <time>2022-09-21T14:46:42Z</time>
      </trkpt>
      <trkpt lat="50.23512" lon="2.17489">
        <ele>55.41</ele>
        <time>2022-09-21T14:46:53Z</time>
      </trkpt>
      <trkpt lat="50.23511" lon="2.17489">
        <ele>55.41</ele>
        <time>2022-09-21T14:46:54Z</time>
      </trkpt>
    </trkseg>
  </trk>
</gpx>